FW2371 Weather Reports


Display with metric or nautical units.
time (UTC)temp
F
wind
direction
speed
MPH
gust
MPH
rain 1hr
in
rain 24hr
in
rain mn
in
humidity
%
barometer
mb
20200405094904 68 72 2.0 4.0 0.00 0.00 0.00 29 1017.7
20200405094804 69 75 2.0 4.0 0.00 0.00 0.00 29 1017.7
20200405094704 69 88 1.0 4.0 0.00 0.00 0.00 29 1017.7
20200405094604 69 94 1.0 4.0 0.00 0.00 0.00 29 1017.7
20200405094504 69 92 1.0 4.0 0.00 0.00 0.00 29 1017.7
20200405094404 69 105 1.0 4.0 0.00 0.00 0.00 29 1017.7
20200405094304 69 119 1.0 4.0 0.00 0.00 0.00 29 1017.7
20200405094204 69 126 1.0 3.0 0.00 0.00 0.00 29 1017.7
20200405094104 69 130 1.0 3.0 0.00 0.00 0.00 30 1017.8
20200405094004 69 136 1.0 3.0 0.00 0.00 0.00 30 1017.8
20200405093904 69 135 1.0 3.0 0.00 0.00 0.00 30 1017.8
20200405093804 68 127 1.0 3.0 0.00 0.00 0.00 30 1017.8
20200405093704 68 109 1.0 4.0 0.00 0.00 0.00 30 1017.8
20200405093604 68 106 1.0 4.0 0.00 0.00 0.00 29 1017.8
20200405093504 68 106 2.0 5.0 0.00 0.00 0.00 30 1017.8
20200405093404 68 101 2.0 5.0 0.00 0.00 0.00 31 1017.9
20200405093304 68 99 2.0 5.0 0.00 0.00 0.00 31 1017.9
20200405093204 67 98 2.0 5.0 0.00 0.00 0.00 31 1017.9
20200405093104 67 92 3.0 5.0 0.00 0.00 0.00 31 1017.9
20200405093003 67 88 3.0 5.0 0.00 0.00 0.00 32 1017.9
20200405092904 67 86 3.0 5.0 0.00 0.00 0.00 32 1018.0
20200405092803 67 86 3.0 5.0 0.00 0.00 0.00 32 1017.8
20200405092704 67 87 3.0 5.0 0.00 0.00 0.00 32 1017.8
20200405092604 67 88 3.0 5.0 0.00 0.00 0.00 31 1017.9
20200405092504 67 85 3.0 5.0 0.00 0.00 0.00 32 1017.9
20200405092404 67 86 2.0 5.0 0.00 0.00 0.00 33 1017.9
20200405092305 67 85 2.0 5.0 0.00 0.00 0.00 33 1017.8
20200405092203 67 85 2.0 5.0 0.00 0.00 0.00 33 1017.8
20200405092103 68 91 2.0 5.0 0.00 0.00 0.00 32 1017.9
20200405092004 68 99 1.0 4.0 0.00 0.00 0.00 32 1017.9
20200405091903 67 97 1.0 4.0 0.00 0.00 0.00 31 1017.9
20200405091804 67 92 1.0 4.0 0.00 0.00 0.00 32 1017.9
20200405091709 68 91 1.0 4.0 0.00 0.00 0.00 32 1017.9
20200405091606 68 80 1.0 4.0 0.00 0.00 0.00 32 1018.0
20200405091512 67 77 1.0 4.0 0.00 0.00 0.00 32 1017.9
20200405091403 67 71 1.0 4.0 0.00 0.00 0.00 33 1017.9
20200405091304 67 75 1.0 4.0 0.00 0.00 0.00 33 1017.9
20200405091203 67 77 1.0 4.0 0.00 0.00 0.00 34 1017.9
20200405091103 66 74 2.0 5.0 0.00 0.00 0.00 34 1017.9
20200405091003 66 73 2.0 6.0 0.00 0.00 0.00 34 1017.9
20200405090903 66 73 3.0 6.0 0.00 0.00 0.00 34 1017.9
20200405090803 67 74 3.0 6.0 0.00 0.00 0.00 34 1018.0
20200405090703 67 76 3.0 6.0 0.00 0.00 0.00 33 1018.0
20200405090603 67 79 3.0 6.0 0.00 0.00 0.00 33 1017.9
20200405090504 67 83 3.0 6.0 0.00 0.00 0.00 35 1017.8
20200405090404 66 85 3.0 6.0 0.00 0.00 0.00 35 1017.8
20200405090304 66 86 3.0 6.0 0.00 0.00 0.00 35 1017.9
20200405090203 67 88 3.0 6.0 0.00 0.00 0.00 33 1017.9
20200405090103 67 94 2.0 6.0 0.00 0.00 0.00 33 1017.9
20200405090003 67 106 2.0 6.0 0.00 0.00 0.00 34 1017.9
20200405085903 68 116 2.0 6.0 0.00 0.00 0.00 34 1017.9
20200405085803 68 127 2.0 5.0 0.00 0.00 0.00 35 1017.9
20200405085703 68 130 2.0 5.0 0.00 0.00 0.00 34 1017.8
20200405085603 68 132 2.0 5.0 0.00 0.00 0.00 34 1017.8
20200405085504 68 130 2.0 5.0 0.00 0.00 0.00 33 1017.8
20200405085403 68 131 2.0 5.0 0.00 0.00 0.00 33 1017.8
20200405085305 68 133 2.0 5.0 0.00 0.00 0.00 33 1017.8
20200405085204 68 132 2.0 5.0 0.00 0.00 0.00 33 1017.8
20200405085103 68 136 2.0 5.0 0.00 0.00 0.00 33 1017.8
20200405085003 68 137 2.0 5.0 0.00 0.00 0.00 33 1017.8
20200405084904 68 134 2.0 5.0 0.00 0.00 0.00 32 1017.8
20200405084803 68 139 2.0 5.0 0.00 0.00 0.00 34 1017.8
20200405084703 68 141 1.0 3.0 0.00 0.00 0.00 33 1017.8
20200405084604 68 141 1.0 3.0 0.00 0.00 0.00 32 1017.8
20200405084503 68 144 1.0 3.0 0.00 0.00 0.00 32 1017.8
20200405084403 68 144 1.0 3.0 0.00 0.00 0.00 31 1017.7
20200405084303 68 141 1.0 3.0 0.00 0.00 0.00 32 1017.7
20200405084203 68 140 1.0 3.0 0.00 0.00 0.00 32 1017.9
20200405084103 68 138 1.0 3.0 0.00 0.00 0.00 32 1017.9
20200405084003 68 136 1.0 3.0 0.00 0.00 0.00 33 1017.8
20200405083903 68 137 1.0 2.0 0.00 0.00 0.00 33 1017.8
20200405083803 68 107 1.0 5.0 0.00 0.00 0.00 33 1017.8
20200405083703 67 90 1.0 5.0 0.00 0.00 0.00 33 1018.0
20200405083603 67 80 2.0 5.0 0.00 0.00 0.00 33 1018.0
20200405083503 67 71 2.0 7.0 0.00 0.00 0.00 35 1017.8
20200405083404 67 72 2.0 7.0 0.00 0.00 0.00 34 1018.0
20200405083303 66 72 2.0 7.0 0.00 0.00 0.00 35 1018.0
20200405083203 66 73 2.0 7.0 0.00 0.00 0.00 35 1017.9
20200405083103 66 85 3.0 7.0 0.00 0.00 0.00 35 1017.9
20200405083004 66 88 3.0 7.0 0.00 0.00 0.00 34 1017.9
20200405082903 66 94 3.0 7.0 0.00 0.00 0.00 35 1017.9
20200405082803 66 103 3.0 7.0 0.00 0.00 0.00 35 1017.9
20200405082703 66 105 3.0 7.0 0.00 0.00 0.00 34 1017.9
20200405082603 66 116 2.0 7.0 0.00 0.00 0.00 35 1017.8
20200405082503 67 133 2.0 5.0 0.00 0.00 0.00 34 1017.8
20200405082404 67 138 2.0 5.0 0.00 0.00 0.00 35 1017.7
20200405082305 67 138 2.0 5.0 0.00 0.00 0.00 34 1017.7
20200405082204 67 129 2.0 5.0 0.00 0.00 0.00 35 1017.8
20200405082104 67 104 1.0 5.0 0.00 0.00 0.00 34 1017.7
20200405082004 67 91 1.0 4.0 0.00 0.00 0.00 35 1017.7
20200405081904 67 83 1.0 4.0 0.00 0.00 0.00 35 1017.8
20200405081804 67 79 1.0 4.0 0.00 0.00 0.00 35 1017.8
20200405081704 66 88 1.0 4.0 0.00 0.00 0.00 35 1017.8
20200405081604 66 81 1.0 4.0 0.00 0.00 0.00 36 1017.7
20200405081504 66 71 1.0 4.0 0.00 0.00 0.00 36 1017.7
20200405081404 66 66 2.0 4.0 0.00 0.00 0.00 36 1017.7
20200405081304 66 64 2.0 4.0 0.00 0.00 0.00 37 1017.7
20200405081204 66 65 2.0 4.0 0.00 0.00 0.00 37 1017.7
20200405081104 66 71 2.0 4.0 0.00 0.00 0.00 37 1017.7
20200405081004 66 71 2.0 4.0 0.00 0.00 0.00 36 1017.7
20200405080904 65 70 2.0 4.0 0.00 0.00 0.00 36 1017.6
20200405080804 65 54 2.0 4.0 0.00 0.00 0.00 36 1017.6
20200405080704 65 35 2.0 4.0 0.00 0.00 0.00 37 1017.6
20200405080604 65 17 2.0 4.0 0.00 0.00 0.00 38 1017.6
20200405080504 65 3 2.0 4.0 0.00 0.00 0.00 37 1017.6
20200405080404 65 336 2.0 4.0 0.00 0.00 0.00 36 1017.6
20200405080304 65 318 2.0 5.0 0.00 0.00 0.00 35 1017.6
20200405080204 65 309 2.0 5.0 0.00 0.00 0.00 35 1017.6
20200405080104 65 304 2.0 5.0 0.00 0.00 0.00 35 1017.7
20200405080005 65 299 2.0 5.0 0.00 0.00 0.00 36 1017.7
20200405075904 65 297 2.0 5.0 0.00 0.00 0.00 36 1017.7
20200405075804 65 292 2.0 5.0 0.00 0.00 0.00 36 1017.7
20200405075704 65 289 2.0 5.0 0.00 0.00 0.00 35 1017.7
20200405075604 65 287 2.0 5.0 0.00 0.00 0.00 34 1017.6
20200405075504 65 283 2.0 5.0 0.00 0.00 0.00 33 1017.7
20200405075404 65 274 1.0 5.0 0.00 0.00 0.00 33 1017.7
20200405075305 65 268 1.0 3.0 0.00 0.00 0.00 33 1017.7
20200405075204 65 270 1.0 3.0 0.00 0.00 0.00 33 1017.7
20200405075104 65 264 1.0 3.0 0.00 0.00 0.00 33 1017.7
20200405075004 65 272 1.0 2.0 0.00 0.00 0.00 35 1017.6
20200405074904 65 335 1.0 3.0 0.00 0.00 0.00 36 1017.6
20200405074804 64 18 1.0 3.0 0.00 0.00 0.00 36 1017.6
20200405074704 64 19 1.0 3.0 0.00 0.00 0.00 36 1017.6
20200405074604 64 15 2.0 4.0 0.00 0.00 0.00 36 1017.6
20200405074503 64 11 2.0 4.0 0.00 0.00 0.00 37 1017.7
20200405074404 64 13 2.0 4.0 0.00 0.00 0.00 38 1017.7
20200405074303 64 10 2.0 4.0 0.00 0.00 0.00 39 1017.6
20200405074203 63 16 2.0 4.0 0.00 0.00 0.00 39 1017.6
20200405074104 63 20 2.0 4.0 0.00 0.00 0.00 38 1017.6
20200405074004 63 17 3.0 4.0 0.00 0.00 0.00 39 1017.6
20200405073903 63 16 3.0 4.0 0.00 0.00 0.00 38 1017.6
20200405073803 63 17 3.0 4.0 0.00 0.00 0.00 39 1017.5
20200405073703 63 19 3.0 4.0 0.00 0.00 0.00 39 1017.6
20200405073603 63 22 2.0 4.0 0.00 0.00 0.00 39 1017.6
20200405073504 63 24 2.0 4.0 0.00 0.00 0.00 42 1017.6
20200405073403 62 21 2.0 4.0 0.00 0.00 0.00 44 1017.6
20200405073303 62 29 2.0 4.0 0.00 0.00 0.00 45 1017.6
20200405073203 62 28 2.0 4.0 0.00 0.00 0.00 45 1017.7
20200405073103 62 24 2.0 4.0 0.00 0.00 0.00 44 1017.7
20200405073004 62 24 2.0 4.0 0.00 0.00 0.00 45 1017.6
20200405072904 62 23 2.0 4.0 0.00 0.00 0.00 45 1017.6
20200405072804 62 16 2.0 3.0 0.00 0.00 0.00 44 1017.6
20200405072704 62 14 2.0 3.0 0.00 0.00 0.00 44 1017.6
20200405072604 62 14 2.0 3.0 0.00 0.00 0.00 44 1017.6
20200405072504 62 23 2.0 3.0 0.00 0.00 0.00 46 1017.7
20200405072405 62 30 2.0 3.0 0.00 0.00 0.00 46 1017.7
20200405072306 61 27 2.0 3.0 0.00 0.00 0.00 47 1017.7
20200405072204 61 26 2.0 3.0 0.00 0.00 0.00 46 1017.6
20200405072104 61 31 2.0 3.0 0.00 0.00 0.00 47 1017.6
20200405072004 61 38 2.0 4.0 0.00 0.00 0.00 47 1017.6
20200405071904 61 40 2.0 4.0 0.00 0.00 0.00 46 1017.7
20200405071804 60 45 2.0 4.0 0.00 0.00 0.00 46 1017.7
20200405071704 60 44 2.0 4.0 0.00 0.00 0.00 47 1017.7
20200405071604 60 48 2.0 5.0 0.00 0.00 0.00 47 1017.7
20200405071504 60 52 3.0 7.0 0.00 0.00 0.00 46 1017.6
20200405071404 60 52 3.0 7.0 0.00 0.00 0.00 46 1017.7
20200405071304 60 53 3.0 7.0 0.00 0.00 0.00 46 1017.7
20200405071204 60 51 3.0 7.0 0.00 0.00 0.00 46 1017.8
20200405071104 60 48 3.0 7.0 0.00 0.00 0.00 46 1017.8
20200405071004 60 44 3.0 7.0 0.00 0.00 0.00 46 1017.7
20200405070904 60 36 3.0 7.0 0.00 0.00 0.00 47 1017.8
20200405070804 60 28 3.0 7.0 0.00 0.00 0.00 46 1017.8
20200405070704 60 22 3.0 7.0 0.00 0.00 0.00 48 1017.7
20200405070604 60 9 3.0 7.0 0.00 0.00 0.00 47 1017.8
20200405070504 60 341 2.0 5.0 0.00 0.00 0.00 44 1017.8
20200405070404 60 317 2.0 3.0 0.00 0.00 0.00 44 1017.7
20200405070304 59 306 2.0 3.0 0.00 0.00 0.00 44 1017.7
20200405070204 59 308 2.0 3.0 0.00 0.00 0.00 45 1017.6
20200405070104 59 314 2.0 3.0 0.00 0.00 0.00 45 1017.7
20200405070005 59 317 2.0 3.0 0.00 0.00 0.00 44 1017.7
20200405065904 59 323 2.0 3.0 0.00 0.00 0.00 43 1017.7
20200405065804 59 330 2.0 4.0 0.00 0.00 0.00 43 1017.7
20200405065704 59 332 2.0 4.0 0.00 0.00 0.00 43 1017.6
20200405065604 59 333 2.0 4.0 0.00 0.00 0.00 43 1017.7
20200405065504 59 337 2.0 4.0 0.00 0.00 0.00 43 1017.7
20200405065404 59 340 2.0 4.0 0.00 0.00 0.00 43 1017.7
20200405065304 59 341 2.0 4.0 0.00 0.00 0.00 43 1017.7
20200405065204 59 340 2.0 4.0 0.00 0.00 0.00 43 1017.6
20200405065104 58 331 1.0 4.0 0.00 0.00 0.00 44 1017.7
20200405065004 58 317 1.0 4.0 0.00 0.00 0.00 44 1017.7
20200405064903 58 304 1.0 4.0 0.00 0.00 0.00 44 1017.7
20200405064804 59 291 1.0 3.0 0.00 0.00 0.00 44 1017.7
20200405064703 58 283 1.0 3.0 0.00 0.00 0.00 45 1017.7
20200405064604 58 284 1.0 3.0 0.00 0.00 0.00 46 1017.7
20200405064503 58 284 2.0 4.0 0.00 0.00 0.00 46 1017.7
20200405064403 58 285 2.0 4.0 0.00 0.00 0.00 46 1017.6
20200405064304 58 286 2.0 4.0 0.00 0.00 0.00 47 1017.6
20200405064203 57 286 3.0 6.0 0.00 0.00 0.00 47 1017.6
20200405064103 57 286 3.0 6.0 0.00 0.00 0.00 47 1017.7
20200405064003 57 285 3.0 6.0 0.00 0.00 0.00 46 1017.7
20200405063903 57 285 3.0 6.0 0.00 0.00 0.00 46 1017.6
20200405063803 57 285 3.0 6.0 0.00 0.00 0.00 46 1017.6
20200405063703 56 286 3.0 6.0 0.00 0.00 0.00 46 1017.6
20200405063603 56 285 3.0 6.0 0.00 0.00 0.00 46 1017.6
20200405063503 56 287 3.0 6.0 0.00 0.00 0.00 46 1017.6
20200405063403 56 288 3.0 6.0 0.00 0.00 0.00 46 1017.5
20200405063303 56 290 3.0 6.0 0.00 0.00 0.00 46 1017.7
20200405063203 56 293 3.0 6.0 0.00 0.00 0.00 46 1017.7
20200405063103 56 296 3.0 6.0 0.00 0.00 0.00 46 1017.7
20200405063003 56 299 4.0 6.0 0.00 0.00 0.00 46 1017.7
20200405062903 56 300 3.0 6.0 0.00 0.00 0.00 46 1017.7
20200405062803 55 301 3.0 6.0 0.00 0.00 0.00 46 1017.7
20200405062704 55 302 3.0 6.0 0.00 0.00 0.00 46 1017.7
20200405062604 55 304 3.0 6.0 0.00 0.00 0.00 46 1017.7
20200405062504 55 304 3.0 6.0 0.00 0.00 0.00 46 1017.7
20200405062404 55 305 3.0 6.0 0.00 0.00 0.00 46 1017.7
20200405062304 55 306 3.0 6.0 0.00 0.00 0.00 46 1017.7
20200405062204 55 306 3.0 6.0 0.00 0.00 0.00 46 1017.7
20200405062105 55 307 3.0 6.0 0.00 0.00 0.00 46 1017.7
20200405062004 55 308 3.0 4.0 0.00 0.00 0.00 48 1017.6
20200405061904 54 308 3.0 4.0 0.00 0.00 0.00 47 1017.6
20200405061804 54 308 3.0 4.0 0.00 0.00 0.00 47 1017.7
20200405061704 54 310 3.0 4.0 0.00 0.00 0.00 47 1017.6
20200405061604 54 311 3.0 4.0 0.00 0.00 0.00 47 1017.6
20200405061504 54 311 3.0 4.0 0.00 0.00 0.00 48 1017.6
20200405061404 54 311 3.0 4.0 0.00 0.00 0.00 47 1017.6
20200405061304 54 309 3.0 5.0 0.00 0.00 0.00 47 1017.6
20200405061204 54 310 3.0 5.0 0.00 0.00 0.00 48 1017.6
20200405061104 53 310 3.0 6.0 0.00 0.00 0.00 47 1017.6
20200405061004 53 311 3.0 6.0 0.00 0.00 0.00 48 1017.6
20200405060904 53 311 3.0 6.0 0.00 0.00 0.00 48 1017.6
20200405060804 53 313 3.0 6.0 0.00 0.00 0.00 48 1017.6
20200405060704 53 314 3.0 6.0 0.00 0.00 0.00 48 1017.6
20200405060604 53 315 3.0 6.0 0.00 0.00 0.00 48 1017.6
20200405060504 53 317 3.0 6.0 0.00 0.00 0.00 49 1017.6
20200405060404 52 318 3.0 6.0 0.00 0.00 0.00 48 1017.6
20200405060304 52 321 3.0 6.0 0.00 0.00 0.00 49 1017.7
20200405060204 53 321 3.0 6.0 0.00 0.00 0.00 49 1017.6
20200405060104 52 323 3.0 5.0 0.00 0.00 0.00 49 1017.6
20200405060004 52 325 3.0 6.0 0.00 0.00 0.00 48 1017.7
20200405055904 52 326 3.0 6.0 0.00 0.00 0.00 49 1017.6
20200405055804 52 323 3.0 6.0 0.00 0.00 0.00 49 1017.6
20200405055704 52 321 3.0 6.0 0.00 0.00 0.00 49 1017.5
20200405055604 52 320 4.0 6.0 0.00 0.00 0.00 49 1017.5
20200405055504 52 319 4.0 6.0 0.00 0.00 0.00 49 1017.6
20200405055404 51 319 4.0 6.0 0.00 0.00 0.00 49 1017.5
20200405055304 51 318 4.0 6.0 0.00 0.00 0.00 50 1017.5
20200405055204 51 317 4.0 6.0 0.00 0.00 0.00 49 1017.5
20200405055104 51 316 4.0 6.0 0.00 0.00 0.00 50 1017.5
20200405055004 51 314 4.0 6.0 0.00 0.00 0.00 50 1017.6
20200405054904 51 313 4.0 6.0 0.00 0.00 0.00 50 1017.5
20200405054804 51 312 4.0 6.0 0.00 0.00 0.00 50 1017.5
20200405054704 51 312 3.0 6.0 0.00 0.00 0.00 50 1017.5
20200405054604 50 311 3.0 6.0 0.00 0.00 0.00 50 1017.5
20200405054504 50 310 3.0 5.0 0.00 0.00 0.00 50 1017.6
20200405054404 50 308 3.0 5.0 0.00 0.00 0.00 50 1017.6
20200405054304 50 308 2.0 5.0 0.00 0.00 0.00 51 1017.6
20200405054204 50 307 2.0 5.0 0.00 0.00 0.00 50 1017.6
20200405054104 50 307 2.0 5.0 0.00 0.00 0.00 50 1017.5
20200405054004 50 309 2.0 4.0 0.00 0.00 0.00 49 1017.5
20200405053904 50 308 2.0 4.0 0.00 0.00 0.00 49 1017.5
20200405053804 50 308 2.0 4.0 0.00 0.00 0.00 49 1017.5
20200405053704 50 308 2.0 4.0 0.00 0.00 0.00 49 1017.4
20200405053604 50 309 2.0 4.0 0.00 0.00 0.00 50 1017.6
20200405053504 50 310 3.0 4.0 0.00 0.00 0.00 50 1017.6
20200405053404 50 310 3.0 4.0 0.00 0.00 0.00 50 1017.5
20200405053304 50 310 3.0 5.0 0.00 0.00 0.00 50 1017.5
20200405053204 49 309 3.0 5.0 0.00 0.00 0.00 51 1017.5
20200405053104 49 308 3.0 5.0 0.00 0.00 0.00 50 1017.3
20200405053004 49 307 3.0 5.0 0.00 0.00 0.00 51 1017.3
20200405052904 49 305 3.0 5.0 0.00 0.00 0.00 50 1017.4
20200405052804 49 304 3.0 5.0 0.00 0.00 0.00 51 1017.4
20200405052704 49 304 3.0 5.0 0.00 0.00 0.00 51 1017.4
20200405052604 49 303 3.0 5.0 0.00 0.00 0.00 51 1017.3
20200405052504 49 302 3.0 5.0 0.00 0.00 0.00 51 1017.3
20200405052404 49 301 2.0 5.0 0.00 0.00 0.00 51 1017.4
20200405052304 49 302 2.0 4.0 0.00 0.00 0.00 51 1017.3
20200405052204 49 305 2.0 4.0 0.00 0.00 0.00 51 1017.3
20200405052104 48 312 2.0 4.0 0.00 0.00 0.00 52 1017.3
20200405052003 48 324 1.0 2.0 0.00 0.00 0.00 52 1017.3
20200405051903 48 335 1.0 3.0 0.00 0.00 0.00 52 1017.3
20200405051804 48 347 2.0 3.0 0.00 0.00 0.00 53 1017.1
20200405051704 48 354 2.0 3.0 0.00 0.00 0.00 53 1017.1
20200405051603 48 359 2.0 5.0 0.00 0.00 0.00 53 1017.2
20200405051503 48 6 2.0 5.0 0.00 0.00 0.00 53 1017.2
20200405051404 48 16 3.0 6.0 0.00 0.00 0.00 53 1017.3
20200405051303 48 21 3.0 6.0 0.00 0.00 0.00 53 1017.1
20200405051204 48 17 3.0 6.0 0.00 0.00 0.00 53 1017.1
20200405051103 48 12 3.0 6.0 0.00 0.00 0.00 53 1017.2
20200405051003 48 10 3.0 6.0 0.00 0.00 0.00 53 1017.1
20200405050903 48 10 3.0 6.0 0.00 0.00 0.00 53 1017.1
20200405050804 48 11 3.0 6.0 0.00 0.00 0.00 54 1017.2
20200405050703 47 11 3.0 6.0 0.00 0.00 0.00 54 1017.2
20200405050603 47 13 3.0 6.0 0.00 0.00 0.00 54 1017.1
20200405050503 48 11 3.0 6.0 0.00 0.00 0.00 54 1017.1
20200405050403 48 3 2.0 6.0 0.00 0.00 0.00 53 1017.1
20200405050303 48 358 2.0 5.0 0.00 0.00 0.00 53 1017.1
20200405050203 47 9 2.0 5.0 0.00 0.00 0.00 54 1017.1
20200405050103 47 21 2.0 4.0 0.00 0.00 0.00 55 1017.1
20200405050003 47 32 1.0 2.0 0.00 0.00 0.00 55 1017.0
20200405045903 47 43 1.0 2.0 0.00 0.00 0.00 55 1017.0
20200405045803 47 51 1.0 2.0 0.00 0.00 0.00 55 1017.0
20200405045704 48 55 1.0 2.0 0.00 0.00 0.00 54 1017.0
20200405045604 48 56 1.0 2.0 0.00 0.00 0.00 53 1017.0
20200405045504 48 59 1.0 2.0 0.00 0.00 0.00 53 1017.1
20200405045404 48 61 1.0 2.0 0.00 0.00 0.00 52 1017.1
20200405045304 48 63 1.0 2.0 0.00 0.00 0.00 52 1017.0
20200405045204 48 67 1.0 2.0 0.00 0.00 0.00 51 1017.0
20200405045104 48 80 1.0 3.0 0.00 0.00 0.00 51 1017.0
20200405045004 48 80 1.0 3.0 0.00 0.00 0.00 52 1017.0
20200405044904 49 81 1.0 5.0 0.00 0.00 0.00 51 1017.0
20200405044804 49 90 1.0 5.0 0.00 0.00 0.00 51 1017.0
20200405044704 49 98 2.0 5.0 0.00 0.00 0.00 51 1017.0
20200405044604 49 100 2.0 5.0 0.00 0.00 0.00 51 1017.0
20200405044504 49 93 2.0 5.0 0.00 0.00 0.00 51 1016.9
20200405044404 49 77 2.0 5.0 0.00 0.00 0.00 51 1016.9
20200405044304 49 65 2.0 5.0 0.00 0.00 0.00 51 1016.9
20200405044204 49 59 2.0 5.0 0.00 0.00 0.00 51 1016.9
20200405044104 49 27 2.0 5.0 0.00 0.00 0.00 50 1016.9
20200405044004 49 4 2.0 5.0 0.00 0.00 0.00 50 1017.0
20200405043904 49 345 3.0 5.0 0.00 0.00 0.00 51 1017.0
20200405043804 50 330 3.0 5.0 0.00 0.00 0.00 49 1016.9
20200405043704 50 325 3.0 5.0 0.00 0.00 0.00 49 1016.9
20200405043604 50 322 3.0 5.0 0.00 0.00 0.00 48 1016.9
20200405043504 50 324 3.0 5.0 0.00 0.00 0.00 49 1016.9
20200405043404 50 328 3.0 5.0 0.00 0.00 0.00 49 1016.9
20200405043304 50 330 3.0 5.0 0.00 0.00 0.00 49 1016.9
20200405043204 50 328 3.0 5.0 0.00 0.00 0.00 48 1016.9
20200405043104 50 327 3.0 5.0 0.00 0.00 0.00 48 1016.9
20200405043004 50 325 3.0 5.0 0.00 0.00 0.00 48 1016.9
20200405042904 50 323 4.0 7.0 0.00 0.00 0.00 48 1016.8
20200405042804 50 325 4.0 7.0 0.00 0.00 0.00 48 1016.8
20200405042704 50 327 3.0 7.0 0.00 0.00 0.00 48 1016.9
20200405042604 50 329 3.0 7.0 0.00 0.00 0.00 48 1016.9
20200405042504 50 329 3.0 7.0 0.00 0.00 0.00 48 1016.8
20200405042404 50 332 4.0 7.0 0.00 0.00 0.00 48 1016.8
20200405042304 50 333 4.0 7.0 0.00 0.00 0.00 48 1016.8
20200405042203 50 333 4.0 7.0 0.00 0.00 0.00 48 1016.9
20200405042104 50 336 4.0 7.0 0.00 0.00 0.00 48 1016.9
20200405042004 50 342 4.0 7.0 0.00 0.00 0.00 48 1016.9
20200405041904 50 350 3.0 7.0 0.00 0.00 0.00 48 1016.8
20200405041804 50 356 3.0 7.0 0.00 0.00 0.00 48 1016.8
20200405041704 50 357 4.0 7.0 0.00 0.00 0.00 48 1016.8
20200405041603 50 354 4.0 9.0 0.00 0.00 0.00 48 1016.8
20200405041505 50 349 4.0 9.0 0.00 0.00 0.00 48 1016.8
20200405041404 50 346 4.0 9.0 0.00 0.00 0.00 48 1016.8
20200405041304 50 340 5.0 9.0 0.00 0.00 0.00 48 1016.8
20200405041204 50 335 5.0 9.0 0.00 0.00 0.00 48 1016.9
20200405041104 50 330 5.0 9.0 0.00 0.00 0.00 48 1016.8
20200405041003 50 326 5.0 9.0 0.00 0.00 0.00 48 1016.8
20200405040903 50 324 5.0 9.0 0.00 0.00 0.00 48 1016.7
20200405040804 50 322 6.0 9.0 0.00 0.00 0.00 48 1016.7
20200405040703 51 321 6.0 9.0 0.00 0.00 0.00 47 1016.7
20200405040603 51 322 6.0 9.0 0.00 0.00 0.00 48 1016.6
20200405040503 51 323 6.0 9.0 0.00 0.00 0.00 47 1016.6
20200405040403 51 324 6.0 9.0 0.00 0.00 0.00 47 1016.6
20200405040303 50 326 6.0 9.0 0.00 0.00 0.00 47 1016.7
20200405040203 50 328 6.0 9.0 0.00 0.00 0.00 47 1016.7
20200405040103 50 329 6.0 9.0 0.00 0.00 0.00 48 1016.7
20200405040003 50 329 6.0 9.0 0.00 0.00 0.00 48 1016.7
20200405035903 50 328 6.0 9.0 0.00 0.00 0.00 48 1016.6
20200405035803 50 326 7.0 10.0 0.00 0.00 0.00 47 1016.6
20200405035703 50 324 7.0 10.0 0.00 0.00 0.00 47 1016.6
20200405035603 51 323 7.0 10.0 0.00 0.00 0.00 47 1016.6
20200405035503 50 322 7.0 11.0 0.00 0.00 0.00 47 1016.6
20200405035403 50 320 7.0 11.0 0.00 0.00 0.00 47 1016.7
20200405035303 50 319 7.0 11.0 0.00 0.00 0.00 47 1016.6
20200405035203 50 318 7.0 11.0 0.00 0.00 0.00 48 1016.6
20200405035103 50 318 7.0 11.0 0.00 0.00 0.00 48 1016.6
20200405035003 50 317 7.0 11.0 0.00 0.00 0.00 48 1016.4
20200405034903 50 317 6.0 11.0 0.00 0.00 0.00 48 1016.4
20200405034803 50 318 6.0 11.0 0.00 0.00 0.00 48 1016.5
20200405034704 50 319 6.0 11.0 0.00 0.00 0.00 48 1016.5
20200405034604 50 319 6.0 11.0 0.00 0.00 0.00 48 1016.5
20200405034504 50 319 6.0 10.0 0.00 0.00 0.00 49 1016.6
20200405034404 50 319 6.0 10.0 0.00 0.00 0.00 49 1016.6
20200405034304 50 320 6.0 10.0 0.00 0.00 0.00 49 1016.5
20200405034204 50 321 6.0 10.0 0.00 0.00 0.00 49 1016.5
20200405034104 50 323 6.0 10.0 0.00 0.00 0.00 49 1016.5
20200405034004 50 325 6.0 10.0 0.00 0.00 0.00 49 1016.5
20200405033904 50 326 6.0 10.0 0.00 0.00 0.00 49 1016.5
20200405033804 50 327 6.0 10.0 0.00 0.00 0.00 48 1016.5
20200405033704 50 327 6.0 10.0 0.00 0.00 0.00 48 1016.5
20200405033604 50 328 6.0 10.0 0.00 0.00 0.00 49 1016.5
20200405033504 50 328 6.0 10.0 0.00 0.00 0.00 48 1016.5
20200405033404 50 329 6.0 10.0 0.00 0.00 0.00 49 1016.5
20200405033304 50 330 6.0 10.0 0.00 0.00 0.00 49 1016.5
20200405033204 50 329 6.0 10.0 0.00 0.00 0.00 49 1016.5
20200405033104 50 329 6.0 10.0 0.00 0.00 0.00 49 1016.5
20200405033004 50 327 6.0 10.0 0.00 0.00 0.00 49 1016.4
20200405032904 50 325 6.0 9.0 0.00 0.00 0.00 49 1016.4
20200405032804 50 322 6.0 9.0 0.00 0.00 0.00 49 1016.4
20200405032704 50 321 6.0 9.0 0.00 0.00 0.00 49 1016.5
20200405032604 50 320 6.0 9.0 0.00 0.00 0.00 49 1016.5
20200405032504 50 318 6.0 9.0 0.00 0.00 0.00 49 1016.4
20200405032404 50 317 6.0 9.0 0.00 0.00 0.00 49 1016.4
20200405032304 50 315 6.0 8.0 0.00 0.00 0.00 49 1016.4
20200405032204 50 313 6.0 8.0 0.00 0.00 0.00 49 1016.4
20200405032104 50 312 6.0 8.0 0.00 0.00 0.00 48 1016.4
20200405032004 50 311 6.0 8.0 0.00 0.00 0.00 49 1016.4
20200405031904 50 311 5.0 8.0 0.00 0.00 0.00 49 1016.4
20200405031803 50 311 5.0 8.0 0.00 0.00 0.00 49 1016.4
20200405031704 50 310 5.0 8.0 0.00 0.00 0.00 49 1016.4
20200405031604 50 310 5.0 8.0 0.00 0.00 0.00 49 1016.4
20200405031504 50 309 4.0 8.0 0.00 0.00 0.00 49 1016.3
20200405031403 50 310 4.0 7.0 0.00 0.00 0.00 49 1016.4
20200405031303 49 311 4.0 7.0 0.00 0.00 0.00 49 1016.4
20200405031204 49 312 3.0 7.0 0.00 0.00 0.00 49 1016.4
20200405031104 49 314 3.0 7.0 0.00 0.00 0.00 49 1016.4
20200405031004 49 318 3.0 6.0 0.00 0.00 0.00 50 1016.4
20200405030903 49 320 3.0 5.0 0.00 0.00 0.00 50 1016.4
20200405030803 49 322 3.0 5.0 0.00 0.00 0.00 50 1016.4
20200405030703 49 326 3.0 5.0 0.00 0.00 0.00 50 1016.4
20200405030604 49 332 3.0 5.0 0.00 0.00 0.00 50 1016.4
20200405030504 49 340 3.0 5.0 0.00 0.00 0.00 50 1016.3
20200405030403 49 345 3.0 5.0 0.00 0.00 0.00 50 1016.4
20200405030303 49 347 3.0 5.0 0.00 0.00 0.00 50 1016.4
20200405030203 49 345 3.0 6.0 0.00 0.00 0.00 50 1016.3
20200405030103 49 341 3.0 9.0 0.00 0.00 0.00 50 1016.5
20200405030004 49 336 4.0 10.0 0.00 0.00 0.00 50 1016.5
20200405025903 49 333 4.0 10.0 0.00 0.00 0.00 50 1016.4
20200405025803 49 331 4.0 10.0 0.00 0.00 0.00 50 1016.4
20200405025703 49 327 5.0 10.0 0.00 0.00 0.00 50 1016.5
20200405025603 49 323 5.0 10.0 0.00 0.00 0.00 49 1016.5
20200405025503 49 321 5.0 10.0 0.00 0.00 0.00 49 1016.5
20200405025403 49 320 5.0 10.0 0.00 0.00 0.00 49 1016.5
20200405025303 49 320 5.0 10.0 0.00 0.00 0.00 49 1016.5
20200405025203 49 320 5.0 10.0 0.00 0.00 0.00 49 1016.5
20200405025103 49 322 4.0 10.0 0.00 0.00 0.00 49 1016.5
20200405025003 49 323 4.0 9.0 0.00 0.00 0.00 49 1016.5
20200405024903 49 326 3.0 9.0 0.00 0.00 0.00 49 1016.5
20200405024803 49 328 3.0 7.0 0.00 0.00 0.00 49 1016.5
20200405024704 49 333 2.0 7.0 0.00 0.00 0.00 50 1016.5
20200405024605 49 343 2.0 7.0 0.00 0.00 0.00 50 1016.5
20200405024504 48 351 2.0 6.0 0.00 0.00 0.00 51 1016.5
20200405024404 48 6 1.0 4.0 0.00 0.00 0.00 51 1016.5
20200405024304 48 16 1.0 3.0 0.00 0.00 0.00 51 1016.5
20200405024204 49 23 1.0 3.0 0.00 0.00 0.00 51 1016.5
20200405024104 49 27 1.0 3.0 0.00 0.00 0.00 51 1016.4
20200405024004 49 31 1.0 3.0 0.00 0.00 0.00 50 1016.4
20200405023904 49 32 1.0 3.0 0.00 0.00 0.00 50 1016.5
20200405023804 49 33 1.0 3.0 0.00 0.00 0.00 50 1016.5
20200405023704 49 36 1.0 3.0 0.00 0.00 0.00 50 1016.5
20200405023604 49 27 2.0 5.0 0.00 0.00 0.00 50 1016.5
20200405023504 49 19 2.0 5.0 0.00 0.00 0.00 50 1016.5
20200405023404 50 12 2.0 5.0 0.00 0.00 0.00 49 1016.6
20200405023304 50 358 2.0 9.0 0.00 0.00 0.00 49 1016.5
20200405023204 50 350 3.0 9.0 0.00 0.00 0.00 49 1016.5
20200405023104 50 343 3.0 9.0 0.00 0.00 0.00 48 1016.4
20200405023004 50 336 4.0 9.0 0.00 0.00 0.00 48 1016.4
20200405022904 50 333 4.0 9.0 0.00 0.00 0.00 48 1016.5
20200405022804 50 329 5.0 9.0 0.00 0.00 0.00 47 1016.5
20200405022704 50 325 5.0 9.0 0.00 0.00 0.00 47 1016.5
20200405022604 50 323 5.0 9.0 0.00 0.00 0.00 47 1016.5
20200405022504 50 321 6.0 9.0 0.00 0.00 0.00 47 1016.4
20200405022404 50 320 6.0 9.0 0.00 0.00 0.00 47 1016.4
20200405022304 50 318 6.0 9.0 0.00 0.00 0.00 47 1016.4
20200405022204 51 317 6.0 9.0 0.00 0.00 0.00 47 1016.4
20200405022104 51 317 6.0 9.0 0.00 0.00 0.00 47 1016.4
20200405022004 51 318 6.0 9.0 0.00 0.00 0.00 46 1016.4
20200405021904 51 318 6.0 9.0 0.00 0.00 0.00 46 1016.4
20200405021804 51 319 6.0 9.0 0.00 0.00 0.00 47 1016.4
20200405021704 50 319 6.0 9.0 0.00 0.00 0.00 46 1016.4
20200405021603 50 319 6.0 9.0 0.00 0.00 0.00 47 1016.4
20200405021504 50 319 6.0 9.0 0.00 0.00 0.00 47 1016.4
20200405021404 50 319 6.0 9.0 0.00 0.00 0.00 47 1016.4
20200405021303 50 319 7.0 9.0 0.00 0.00 0.00 47 1016.4
20200405021203 50 319 7.0 9.0 0.00 0.00 0.00 47 1016.4
20200405021103 50 319 7.0 9.0 0.00 0.00 0.00 47 1016.4
20200405021003 50 318 7.0 9.0 0.00 0.00 0.00 47 1016.3
20200405020903 50 318 6.0 9.0 0.00 0.00 0.00 48 1016.3
20200405020803 50 318 6.0 9.0 0.00 0.00 0.00 48 1016.3
20200405020703 50 320 6.0 9.0 0.00 0.00 0.00 48 1016.3
20200405020603 50 321 6.0 9.0 0.00 0.00 0.00 48 1016.3
20200405020503 50 323 6.0 9.0 0.00 0.00 0.00 48 1016.4
20200405020403 50 324 5.0 9.0 0.00 0.00 0.00 48 1016.4
20200405020303 50 328 5.0 9.0 0.00 0.00 0.00 49 1016.4
20200405020203 49 333 4.0 8.0 0.00 0.00 0.00 49 1016.3
20200405020103 49 337 4.0 8.0 0.00 0.00 0.00 49 1016.3
20200405020003 49 341 3.0 8.0 0.00 0.00 0.00 50 1016.4
20200405015903 49 347 3.0 8.0 0.00 0.00 0.00 50 1016.4
20200405015803 49 354 3.0 8.0 0.00 0.00 0.00 50 1016.3
20200405015703 49 2 3.0 7.0 0.00 0.00 0.00 51 1016.4
20200405015603 48 12 2.0 6.0 0.00 0.00 0.00 51 1016.4
20200405015503 48 25 2.0 6.0 0.00 0.00 0.00 51 1016.4
20200405015404 48 36 2.0 4.0 0.00 0.00 0.00 52 1016.4
20200405015304 48 40 2.0 4.0 0.00 0.00 0.00 52 1016.4
20200405015204 48 46 2.0 4.0 0.00 0.00 0.00 52 1016.4
20200405015104 49 42 2.0 4.0 0.00 0.00 0.00 52 1016.4
20200405015004 49 29 2.0 7.0 0.00 0.00 0.00 52 1016.4
20200405014904 50 16 2.0 7.0 0.00 0.00 0.00 51 1016.4
20200405014804 50 5 2.0 7.0 0.00 0.00 0.00 49 1016.4
20200405014704 50 353 3.0 7.0 0.00 0.00 0.00 48 1016.4
20200405014604 50 348 3.0 7.0 0.00 0.00 0.00 47 1016.4
20200405014504 51 344 3.0 7.0 0.00 0.00 0.00 46 1016.4
20200405014404 50 340 3.0 7.0 0.00 0.00 0.00 46 1016.4
20200405014304 51 338 3.0 7.0 0.00 0.00 0.00 46 1016.4
20200405014204 51 335 3.0 7.0 0.00 0.00 0.00 46 1016.4
20200405014104 51 335 4.0 7.0 0.00 0.00 0.00 46 1016.4
20200405014004 51 337 3.0 7.0 0.00 0.00 0.00 46 1016.4
20200405013904 51 341 3.0 7.0 0.00 0.00 0.00 46 1016.4
20200405013804 51 344 3.0 7.0 0.00 0.00 0.00 46 1016.4
20200405013704 51 350 3.0 7.0 0.00 0.00 0.00 46 1016.4
20200405013604 51 350 3.0 7.0 0.00 0.00 0.00 46 1016.4
20200405013504 51 344 3.0 8.0 0.00 0.00 0.00 46 1016.4
20200405013404 51 339 3.0 8.0 0.00 0.00 0.00 46 1016.4
20200405013304 51 335 4.0 8.0 0.00 0.00 0.00 46 1016.4
20200405013204 51 328 4.0 8.0 0.00 0.00 0.00 46 1016.5
20200405013104 51 324 4.0 9.0 0.00 0.00 0.00 46 1016.5
20200405013004 51 320 5.0 9.0 0.00 0.00 0.00 46 1016.5
20200405012904 51 317 5.0 9.0 0.00 0.00 0.00 45 1016.5
20200405012803 51 315 5.0 9.0 0.00 0.00 0.00 45 1016.5
20200405012704 51 313 6.0 9.0 0.00 0.00 0.00 45 1016.5
20200405012604 51 311 6.0 9.0 0.00 0.00 0.00 45 1016.5
20200405012504 51 311 6.0 9.0 0.00 0.00 0.00 45 1016.5
20200405012404 51 311 6.0 9.0 0.00 0.00 0.00 44 1016.5
20200405012304 51 311 6.0 10.0 0.00 0.00 0.00 45 1016.5
20200405012203 51 311 6.0 10.0 0.00 0.00 0.00 44 1016.5
20200405012104 51 311 6.0 10.0 0.00 0.00 0.00 45 1016.5
20200405012003 51 311 6.0 10.0 0.00 0.00 0.00 45 1016.5
20200405011903 51 311 6.0 10.0 0.00 0.00 0.00 45 1016.5
20200405011803 51 311 6.0 10.0 0.00 0.00 0.00 45 1016.5
20200405011704 51 311 6.0 10.0 0.00 0.00 0.00 45 1016.5
20200405011604 51 310 6.0 10.0 0.00 0.00 0.00 45 1016.5
20200405011504 51 310 6.0 10.0 0.00 0.00 0.00 45 1016.5
20200405011403 51 309 6.0 10.0 0.00 0.00 0.00 45 1016.6
20200405011303 51 308 6.0 10.0 0.00 0.00 0.00 45 1016.5
20200405011203 51 306 6.0 10.0 0.00 0.00 0.00 45 1016.5
20200405011103 51 305 6.0 10.0 0.00 0.00 0.00 45 1016.5
20200405011003 51 305 6.0 9.0 0.00 0.00 0.00 46 1016.5
20200405010903 51 304 6.0 9.0 0.00 0.00 0.00 46 1016.5
20200405010803 51 303 6.0 9.0 0.00 0.00 0.00 46 1016.6
20200405010703 51 303 6.0 9.0 0.00 0.00 0.00 46 1016.6
20200405010604 51 303 6.0 9.0 0.00 0.00 0.00 46 1016.6
20200405010503 51 303 6.0 9.0 0.00 0.00 0.00 46 1016.6
20200405010403 50 303 6.0 9.0 0.00 0.00 0.00 46 1016.5
20200405010303 50 303 6.0 9.0 0.00 0.00 0.00 46 1016.6
20200405010203 50 304 6.0 8.0 0.00 0.00 0.00 46 1016.6
20200405010103 50 305 6.0 8.0 0.00 0.00 0.00 47 1016.6
20200405010003 50 306 5.0 8.0 0.00 0.00 0.00 47 1016.6
20200405005903 50 307 5.0 8.0 0.00 0.00 0.00 47 1016.6
20200405005803 50 310 5.0 7.0 0.00 0.00 0.00 47 1016.6
20200405005703 50 313 5.0 7.0 0.00 0.00 0.00 47 1016.6
20200405005603 50 319 5.0 7.0 0.00 0.00 0.00 47 1016.6
20200405005503 50 325 4.0 7.0 0.00 0.00 0.00 47 1016.6
20200405005403 50 329 4.0 7.0 0.00 0.00 0.00 47 1016.6
20200405005303 50 333 4.0 7.0 0.00 0.00 0.00 47 1016.6
20200405005203 50 335 4.0 7.0 0.00 0.00 0.00 47 1016.6
20200405005103 50 337 4.0 7.0 0.00 0.00 0.00 47 1016.6
20200405005003 50 338 4.0 7.0 0.00 0.00 0.00 47 1016.7
20200405004903 50 339 4.0 9.0 0.00 0.00 0.00 48 1016.7
20200405004803 50 338 4.0 9.0 0.00 0.00 0.00 48 1016.7
20200405004703 50 335 4.0 9.0 0.00 0.00 0.00 48 1016.7
20200405004603 50 330 5.0 9.0 0.00 0.00 0.00 48 1016.7
20200405004503 50 326 5.0 9.0 0.00 0.00 0.00 48 1016.7
20200405004404 50 323 5.0 9.0 0.00 0.00 0.00 48 1016.7
20200405004304 50 321 5.0 9.0 0.00 0.00 0.00 48 1016.7
20200405004204 50 321 5.0 9.0 0.00 0.00 0.00 48 1016.7
20200405004104 50 320 5.0 9.0 0.00 0.00 0.00 48 1016.7
20200405004004 50 321 5.0 9.0 0.00 0.00 0.00 48 1016.7
20200405003904 50 321 5.0 8.0 0.00 0.00 0.00 48 1016.7
20200405003804 50 321 5.0 8.0 0.00 0.00 0.00 48 1016.7
20200405003704 50 321 5.0 8.0 0.00 0.00 0.00 48 1016.7
20200405003604 50 321 5.0 8.0 0.00 0.00 0.00 48 1016.7
20200405003504 50 322 5.0 8.0 0.00 0.00 0.00 48 1016.7
20200405003404 50 323 5.0 8.0 0.00 0.00 0.00 48 1016.7
20200405003304 50 323 5.0 9.0 0.00 0.00 0.00 48 1016.7
20200405003204 50 323 6.0 9.0 0.00 0.00 0.00 47 1016.6
20200405003104 50 323 6.0 9.0 0.00 0.00 0.00 47 1016.6
20200405003004 50 323 6.0 9.0 0.00 0.00 0.00 47 1016.7
20200405002904 50 323 6.0 10.0 0.00 0.00 0.00 47 1016.7
20200405002804 50 323 6.0 10.0 0.00 0.00 0.00 47 1016.7
20200405002704 50 322 6.0 10.0 0.00 0.00 0.00 47 1016.8
20200405002604 50 321 6.0 10.0 0.00 0.00 0.00 47 1016.8
20200405002504 50 321 6.0 11.0 0.00 0.00 0.00 47 1016.7
20200405002404 50 320 6.0 11.0 0.00 0.00 0.00 47 1016.7
20200405002304 50 320 6.0 11.0 0.00 0.00 0.00 47 1016.7
20200405002204 50 320 6.0 11.0 0.00 0.00 0.00 47 1016.7
20200405002104 50 319 6.0 11.0 0.00 0.00 0.00 47 1016.7
20200405002004 50 318 6.0 11.0 0.00 0.00 0.00 47 1016.8
20200405001904 50 317 6.0 11.0 0.00 0.00 0.00 47 1016.8
20200405001804 50 316 6.0 11.0 0.00 0.00 0.00 47 1016.8
20200405001704 50 315 6.0 11.0 0.00 0.00 0.00 47 1016.8
20200405001604 50 314 5.0 11.0 0.00 0.00 0.00 47 1016.8
20200405001504 50 313 5.0 8.0 0.00 0.00 0.00 47 1016.8
20200405001404 50 313 5.0 8.0 0.00 0.00 0.00 47 1016.8
20200405001304 50 312 5.0 8.0 0.00 0.00 0.00 47 1016.8
20200405001204 50 311 5.0 8.0 0.00 0.00 0.00 47 1016.8
20200405001104 50 310 5.0 8.0 0.00 0.00 0.00 47 1016.8
20200405001004 50 310 5.0 8.0 0.00 0.00 0.00 47 1016.8
20200405000904 50 309 5.0 8.0 0.00 0.00 0.00 47 1016.8
20200405000804 50 309 5.0 8.0 0.00 0.00 0.00 47 1016.8
20200405000704 50 309 4.0 8.0 0.00 0.00 0.00 47 1016.7
20200405000603 50 309 4.0 8.0 0.00 0.00 0.00 47 1016.9
20200405000504 50 310 4.0 8.0 0.00 0.00 0.00 47 1016.9
20200405000404 50 310 4.0 8.0 0.00 0.00 0.00 47 1016.9
20200405000303 50 311 4.0 6.0 0.00 0.00 0.00 47 1016.9
20200405000203 50 311 4.0 7.0 0.00 0.00 0.00 47 1016.9
20200405000104 50 313 4.0 7.0 0.00 0.00 0.00 47 1017.0
20200405000005 50 314 4.0 7.0 0.00 0.00 0.00 47 1017.0
20200404235903 50 314 4.0 7.0 0.00 0.00 0.00 48 1016.9
20200404235803 50 315 4.0 7.0 0.00 0.00 0.00 48 1016.9
20200404235703 50 315 4.0 7.0 0.00 0.00 0.00 48 1016.9
20200404235603 50 315 5.0 7.0 0.00 0.00 0.00 48 1017.0
20200404235503 50 314 5.0 8.0 0.00 0.00 0.00 48 1017.0
20200404235403 50 314 5.0 8.0 0.00 0.00 0.00 48 1017.0
20200404235303 50 315 5.0 8.0 0.00 0.00 0.00 48 1016.9
20200404235203 50 316 4.0 8.0 0.00 0.00 0.00 48 1016.9
20200404235103 50 316 4.0 8.0 0.00 0.00 0.00 48 1017.0
20200404235004 50 316 4.0 8.0 0.00 0.00 0.00 48 1017.0
20200404234903 50 316 4.0 8.0 0.00 0.00 0.00 48 1017.0
20200404234804 50 317 4.0 8.0 0.00 0.00 0.00 48 1017.0
20200404234703 50 318 3.0 8.0 0.00 0.00 0.00 48 1017.0
20200404234603 49 319 3.0 8.0 0.00 0.00 0.00 49 1017.1
20200404234503 49 321 3.0 5.0 0.00 0.00 0.00 49 1017.1
20200404234403 49 323 3.0 5.0 0.00 0.00 0.00 49 1017.0
20200404234303 49 324 2.0 5.0 0.00 0.00 0.00 50 1017.0
20200404234203 49 324 2.0 5.0 0.00 0.00 0.00 49 1017.0
20200404234103 49 323 2.0 4.0 0.00 0.00 0.00 49 1017.1
20200404234003 49 323 2.0 4.0 0.00 0.00 0.00 50 1017.1
20200404233903 49 321 2.0 4.0 0.00 0.00 0.00 50 1017.1
20200404233803 49 319 2.0 4.0 0.00 0.00 0.00 50 1017.1
20200404233703 49 314 2.0 4.0 0.00 0.00 0.00 50 1017.1
20200404233603 49 309 2.0 4.0 0.00 0.00 0.00 50 1017.0
20200404233503 49 305 2.0 4.0 0.00 0.00 0.00 50 1017.1
20200404233403 49 300 2.0 4.0 0.00 0.00 0.00 50 1017.1
20200404233303 49 296 2.0 4.0 0.00 0.00 0.00 50 1017.1
20200404233203 49 292 2.0 4.0 0.00 0.00 0.00 51 1017.1
20200404233103 49 290 2.0 4.0 0.00 0.00 0.00 51 1017.2
20200404233004 49 289 3.0 4.0 0.00 0.00 0.00 51 1017.1
20200404232903 49 286 2.0 4.0 0.00 0.00 0.00 51 1017.1
20200404232803 48 285 3.0 4.0 0.00 0.00 0.00 51 1017.2
20200404232703 48 284 3.0 4.0 0.00 0.00 0.00 51 1017.2
20200404232603 49 284 3.0 4.0 0.00 0.00 0.00 51 1017.1
20200404232503 49 283 2.0 4.0 0.00 0.00 0.00 51 1017.2
20200404232403 49 283 2.0 4.0 0.00 0.00 0.00 50 1017.2
20200404232303 49 283 2.0 4.0 0.00 0.00 0.00 50 1017.2
20200404232203 49 284 2.0 4.0 0.00 0.00 0.00 50 1017.1
20200404232103 49 283 2.0 4.0 0.00 0.00 0.00 49 1017.1
20200404232003 50 281 1.0 4.0 0.00 0.00 0.00 49 1017.2
20200404231903 50 280 1.0 4.0 0.00 0.00 0.00 49 1017.2
20200404231803 50 281 1.0 3.0 0.00 0.00 0.00 49 1017.2
20200404231703 50 284 1.0 3.0 0.00 0.00 0.00 49 1017.2
20200404231603 50 290 1.0 4.0 0.00 0.00 0.00 49 1017.2
20200404231503 50 300 1.0 4.0 0.00 0.00 0.00 49 1017.2
20200404231403 50 306 1.0 4.0 0.00 0.00 0.00 49 1017.2
20200404231303 50 307 1.0 5.0 0.00 0.00 0.00 48 1017.2
20200404231203 50 309 2.0 5.0 0.00 0.00 0.00 49 1017.2
20200404231104 50 309 2.0 6.0 0.00 0.00 0.00 49 1017.2
20200404231004 50 307 2.0 6.0 0.00 0.00 0.00 49 1017.1
20200404230904 50 306 3.0 6.0 0.00 0.00 0.00 49 1017.1
20200404230804 50 306 3.0 6.0 0.00 0.00 0.00 49 1017.1
20200404230704 50 305 3.0 6.0 0.00 0.00 0.00 49 1017.1
20200404230604 50 306 3.0 6.0 0.00 0.00 0.00 49 1017.1
20200404230504 50 306 3.0 6.0 0.00 0.00 0.00 49 1017.2
20200404230404 50 305 3.0 6.0 0.00 0.00 0.00 49 1017.1
20200404230304 51 304 3.0 6.0 0.00 0.00 0.00 48 1017.1
20200404230204 51 304 3.0 6.0 0.00 0.00 0.00 48 1017.1
20200404230104 51 303 3.0 5.0 0.00 0.00 0.00 48 1017.1
20200404230004 51 302 3.0 5.0 0.00 0.00 0.00 48 1017.1
20200404225904 51 301 3.0 5.0 0.00 0.00 0.00 48 1017.2
20200404225804 51 299 3.0 5.0 0.00 0.00 0.00 48 1017.2
20200404225704 51 298 3.0 5.0 0.00 0.00 0.00 48 1017.2
20200404225604 51 295 3.0 5.0 0.00 0.00 0.00 48 1017.2
20200404225504 51 292 3.0 4.0 0.00 0.00 0.00 48 1017.2
20200404225404 51 290 3.0 4.0 0.00 0.00 0.00 48 1017.2
20200404225304 51 288 3.0 4.0 0.00 0.00 0.00 49 1017.2
20200404225204 51 285 3.0 4.0 0.00 0.00 0.00 48 1017.2
20200404225104 51 285 3.0 4.0 0.00 0.00 0.00 48 1017.2
20200404225004 51 285 3.0 4.0 0.00 0.00 0.00 48 1017.2
20200404224904 51 286 3.0 4.0 0.00 0.00 0.00 48 1017.1
20200404224804 51 287 3.0 4.0 0.00 0.00 0.00 48 1017.1
20200404224704 51 288 3.0 4.0 0.00 0.00 0.00 47 1017.2
20200404224604 52 291 3.0 4.0 0.00 0.00 0.00 46 1017.2
20200404224504 52 293 3.0 4.0 0.00 0.00 0.00 46 1017.2
20200404224404 52 296 3.0 4.0 0.00 0.00 0.00 46 1017.2
20200404224304 52 298 3.0 4.0 0.00 0.00 0.00 45 1017.2
20200404224204 52 299 3.0 4.0 0.00 0.00 0.00 45 1017.2
20200404224104 52 300 3.0 4.0 0.00 0.00 0.00 46 1017.2
20200404224004 52 300 3.0 4.0 0.00 0.00 0.00 45 1017.2
20200404223904 52 298 3.0 4.0 0.00 0.00 0.00 46 1017.2
20200404223804 52 295 3.0 4.0 0.00 0.00 0.00 46 1017.2
20200404223704 52 293 3.0 4.0 0.00 0.00 0.00 46 1017.1
20200404223604 52 290 3.0 4.0 0.00 0.00 0.00 46 1017.2
20200404223504 52 287 3.0 4.0 0.00 0.00 0.00 46 1017.2
20200404223404 52 284 3.0 4.0 0.00 0.00 0.00 47 1017.2
20200404223304 52 281 3.0 4.0 0.00 0.00 0.00 47 1017.2
20200404223204 52 280 3.0 4.0 0.00 0.00 0.00 46 1017.2
20200404223104 52 278 3.0 4.0 0.00 0.00 0.00 47 1017.2
20200404223004 52 277 3.0 4.0 0.00 0.00 0.00 47 1017.2
20200404222904 52 276 3.0 4.0 0.00 0.00 0.00 47 1017.2
20200404222804 52 276 2.0 4.0 0.00 0.00 0.00 48 1017.2
20200404222704 52 276 2.0 4.0 0.00 0.00 0.00 48 1017.2
20200404222604 52 277 2.0 4.0 0.00 0.00 0.00 48 1017.3
20200404222504 53 278 2.0 4.0 0.00 0.00 0.00 48 1017.3
20200404222403 53 281 2.0 3.0 0.00 0.00 0.00 48 1017.3
20200404222303 53 284 1.0 3.0 0.00 0.00 0.00 47 1017.3
20200404222204 53 286 1.0 2.0 0.00 0.00 0.00 47 1017.3
20200404222104 53 288 1.0 2.0 0.00 0.00 0.00 47 1017.2
20200404222004 53 290 1.0 2.0 0.00 0.00 0.00 47 1017.2
20200404221903 53 294 1.0 3.0 0.00 0.00 0.00 47 1017.2
20200404221803 53 297 1.0 3.0 0.00 0.00 0.00 47 1017.3
20200404221704 53 299 2.0 3.0 0.00 0.00 0.00 47 1017.3
20200404221604 53 301 2.0 3.0 0.00 0.00 0.00 48 1017.3
20200404221504 53 303 2.0 3.0 0.00 0.00 0.00 48 1017.2
20200404221404 53 304 2.0 3.0 0.00 0.00 0.00 49 1017.2
20200404221304 53 306 2.0 3.0 0.00 0.00 0.00 49 1017.2
20200404221203 53 306 2.0 3.0 0.00 0.00 0.00 49 1017.2
20200404221103 53 309 2.0 4.0 0.00 0.00 0.00 49 1017.2
20200404221004 53 312 2.0 4.0 0.00 0.00 0.00 49 1017.1
20200404220903 53 314 2.0 4.0 0.00 0.00 0.00 50 1017.1
20200404220804 52 317 2.0 4.0 0.00 0.00 0.00 51 1017.1
20200404220703 52 318 2.0 4.0 0.00 0.00 0.00 51 1017.1
20200404220603 52 319 2.0 4.0 0.00 0.00 0.00 53 1017.1
20200404220503 52 320 2.0 4.0 0.00 0.00 0.00 52 1017.2
20200404220404 52 319 2.0 4.0 0.00 0.00 0.00 53 1017.2
20200404220303 52 319 2.0 4.0 0.00 0.00 0.00 54 1017.2
20200404220204 52 319 2.0 4.0 0.00 0.00 0.00 54 1017.2
20200404220103 52 318 2.0 4.0 0.00 0.00 0.00 54 1017.1
20200404220005 51 316 1.0 4.0 0.00 0.00 0.00 56 1017.2
20200404215903 51 312 1.0 3.0 0.00 0.00 0.00 57 1017.2
20200404215803 51 307 1.0 2.0 0.00 0.00 0.00 57 1017.1
20200404215703 51 304 1.0 2.0 0.00 0.00 0.00 57 1017.1
20200404215603 51 301 1.0 2.0 0.00 0.00 0.00 57 1017.1
20200404215503 51 300 1.0 2.0 0.00 0.00 0.00 58 1017.1
20200404215403 51 300 1.0 3.0 0.00 0.00 0.00 57 1017.1
20200404215303 51 299 2.0 3.0 0.00 0.00 0.00 58 1017.1
20200404215203 51 299 2.0 4.0 0.00 0.00 0.00 58 1017.1
20200404215104 51 299 2.0 4.0 0.00 0.00 0.00 58 1017.1
20200404215004 51 298 2.0 4.0 0.00 0.00 0.00 58 1017.0
20200404214904 51 298 2.0 4.0 0.00 0.00 0.00 59 1017.0
20200404214804 51 298 2.0 4.0 0.00 0.00 0.00 59 1017.1
20200404214704 51 298 2.0 4.0 0.00 0.00 0.00 59 1017.1
20200404214604 51 296 2.0 4.0 0.00 0.00 0.00 59 1017.1
20200404214504 51 291 2.0 4.0 0.00 0.00 0.00 60 1017.1
20200404214404 51 283 2.0 4.0 0.00 0.00 0.00 60 1017.1
20200404214304 50 273 2.0 4.0 0.00 0.00 0.00 60 1017.0
20200404214204 50 241 2.0 3.0 0.00 0.00 0.00 61 1017.0
20200404214104 50 199 2.0 3.0 0.00 0.00 0.00 60 1017.0
20200404214004 51 169 1.0 3.0 0.00 0.00 0.00 61 1017.0
20200404213904 51 160 1.0 3.0 0.00 0.00 0.00 61 1017.0
20200404213804 51 158 1.0 3.0 0.00 0.00 0.00 61 1017.0
20200404213704 51 159 1.0 3.0 0.00 0.00 0.00 61 1017.0
20200404213604 50 159 1.0 3.0 0.00 0.00 0.00 61 1017.0
20200404213504 50 158 1.0 3.0 0.00 0.00 0.00 61 1017.0
20200404213404 50 160 1.0 3.0 0.00 0.00 0.00 62 1017.1
20200404213304 50 162 1.0 3.0 0.00 0.00 0.00 62 1017.1
20200404213204 50 139 1.0 2.0 0.00 0.00 0.00 62 1017.0
20200404213104 50 102 1.0 4.0 0.00 0.00 0.00 62 1017.0
20200404213004 50 86 1.0 4.0 0.00 0.00 0.00 62 1017.0
20200404212904 50 76 1.0 4.0 0.00 0.00 0.00 62 1017.0
20200404212804 50 64 1.0 4.0 0.00 0.00 0.00 62 1017.0
20200404212704 50 70 1.0 4.0 0.00 0.00 0.00 61 1017.0
20200404212604 50 79 1.0 4.0 0.00 0.00 0.00 61 1017.1
20200404212504 50 94 2.0 5.0 0.00 0.00 0.00 61 1017.1
20200404212404 50 88 2.0 5.0 0.00 0.00 0.00 61 1017.0
20200404212304 50 83 2.0 5.0 0.00 0.00 0.00 61 1017.0
20200404212204 50 80 2.0 5.0 0.00 0.00 0.00 60 1017.0
20200404212104 50 67 2.0 5.0 0.00 0.00 0.00 62 1017.0
20200404212004 50 55 2.0 5.0 0.00 0.00 0.00 62 1017.0
20200404211904 50 44 3.0 5.0 0.00 0.00 0.00 61 1016.9
20200404211804 50 41 3.0 5.0 0.00 0.00 0.00 60 1016.9
20200404211704 50 38 3.0 9.0 0.00 0.00 0.00 60 1016.9
20200404211604 51 35 4.0 9.0 0.00 0.00 0.00 59 1016.9
20200404211504 51 28 3.0 9.0 0.00 0.00 0.00 58 1016.9
20200404211404 51 23 3.0 9.0 0.00 0.00 0.00 57 1016.9
20200404211304 51 21 3.0 9.0 0.00 0.00 0.00 56 1016.9
20200404211204 50 19 3.0 9.0 0.00 0.00 0.00 58 1016.9
20200404211104 50 18 3.0 9.0 0.00 0.00 0.00 58 1016.9
20200404211004 51 17 3.0 9.0 0.00 0.00 0.00 58 1016.9
20200404210903 51 17 2.0 9.0 0.00 0.00 0.00 57 1016.9
20200404210804 52 17 2.0 9.0 0.00 0.00 0.00 56 1016.8
20200404210704 52 15 2.0 5.0 0.00 0.00 0.00 54 1016.8
20200404210604 51 16 2.0 3.0 0.00 0.00 0.00 52 1016.8
20200404210504 51 20 2.0 3.0 0.00 0.00 0.00 56 1016.8
20200404210404 51 29 2.0 2.0 0.00 0.00 0.00 59 1016.8
20200404210303 52 35 1.0 2.0 0.00 0.00 0.00 60 1016.9
20200404210203 52 36 1.0 2.0 0.00 0.00 0.00 59 1016.9
20200404210104 52 42 1.0 3.0 0.00 0.00 0.00 59 1016.9
20200404210004 53 50 2.0 3.0 0.00 0.00 0.00 58 1016.9
20200404205903 53 59 2.0 4.0 0.00 0.00 0.00 57 1017.0
20200404205803 53 62 2.0 4.0 0.00 0.00 0.00 56 1016.9
20200404205703 54 62 2.0 4.0 0.00 0.00 0.00 54 1016.9
20200404205603 54 56 2.0 4.0 0.00 0.00 0.00 53 1016.9
20200404205503 54 46 2.0 4.0 0.00 0.00 0.00 50 1016.9
20200404205403 54 38 2.0 4.0 0.00 0.00 0.00 54 1016.9
20200404205303 54 24 3.0 5.0 0.00 0.00 0.00 52 1016.9
20200404205204 54 15 3.0 5.0 0.00 0.00 0.00 53 1016.9
20200404205103 54 2 3.0 5.0 0.00 0.00 0.00 53 1016.9
20200404205003 54 351 3.0 5.0 0.00 0.00 0.00 51 1016.9
20200404204903 54 340 3.0 5.0 0.00 0.00 0.00 50 1016.9
20200404204803 55 327 3.0 5.0 0.00 0.00 0.00 48 1016.9
20200404204703 54 316 3.0 5.0 0.00 0.00 0.00 46 1016.9
20200404204604 54 308 3.0 5.0 0.00 0.00 0.00 48 1017.0
20200404204504 54 302 3.0 5.0 0.00 0.00 0.00 50 1016.9
20200404204404 54 299 3.0 5.0 0.00 0.00 0.00 49 1016.9
20200404204304 54 294 3.0 4.0 0.00 0.00 0.00 51 1016.8
20200404204204 54 290 2.0 4.0 0.00 0.00 0.00 53 1016.8
20200404204104 54 288 2.0 4.0 0.00 0.00 0.00 54 1016.9
20200404204004 54 287 3.0 4.0 0.00 0.00 0.00 54 1016.8
20200404203904 54 287 3.0 4.0 0.00 0.00 0.00 54 1016.8
20200404203804 54 287 3.0 4.0 0.00 0.00 0.00 55 1016.9
20200404203704 54 285 3.0 4.0 0.00 0.00 0.00 55 1016.8
20200404203604 54 284 3.0 4.0 0.00 0.00 0.00 55 1016.8
20200404203504 54 283 3.0 4.0 0.00 0.00 0.00 55 1016.9
20200404203404 54 281 3.0 4.0 0.00 0.00 0.00 56 1016.9
20200404203304 54 280 3.0 4.0 0.00 0.00 0.00 56 1016.9
20200404203204 54 279 3.0 4.0 0.00 0.00 0.00 57 1016.8
20200404203104 54 278 3.0 4.0 0.00 0.00 0.00 57 1016.8
20200404203004 54 276 3.0 4.0 0.00 0.00 0.00 57 1016.8
20200404202904 54 275 3.0 4.0 0.00 0.00 0.00 58 1016.8
20200404202804 54 274 3.0 4.0 0.00 0.00 0.00 58 1016.8
20200404202704 54 274 3.0 4.0 0.00 0.00 0.00 58 1016.9
20200404202604 54 274 3.0 4.0 0.00 0.00 0.00 58 1016.9
20200404202504 54 276 3.0 4.0 0.00 0.00 0.00 58 1016.9
20200404202404 54 280 3.0 4.0 0.00 0.00 0.00 58 1016.9
20200404202304 54 283 3.0 4.0 0.00 0.00 0.00 59 1016.8
20200404202204 54 285 3.0 4.0 0.00 0.00 0.00 58 1016.8
20200404202104 54 289 3.0 4.0 0.00 0.00 0.00 58 1016.8
20200404202004 55 294 3.0 5.0 0.00 0.00 0.00 56 1016.9
20200404201904 55 297 3.0 5.0 0.00 0.00 0.00 56 1016.9
20200404201804 55 301 3.0 5.0 0.00 0.00 0.00 55 1016.9
20200404201704 55 304 3.0 5.0 0.00 0.00 0.00 55 1016.9
20200404201604 55 309 3.0 5.0 0.00 0.00 0.00 56 1016.9
20200404201504 55 313 3.0 5.0 0.00 0.00 0.00 57 1016.9
20200404201404 55 317 3.0 5.0 0.00 0.00 0.00 61 1016.9
20200404201304 55 321 3.0 5.0 0.00 0.00 0.00 62 1016.9
20200404201204 55 325 3.0 5.0 0.00 0.00 0.00 63 1016.9
20200404201104 55 327 3.0 5.0 0.00 0.00 0.00 65 1016.9
20200404201004 55 329 3.0 4.0 0.00 0.00 0.00 66 1016.9
20200404200904 55 331 3.0 4.0 0.00 0.00 0.00 66 1016.9
20200404200804 55 332 3.0 4.0 0.00 0.00 0.00 67 1016.9
20200404200704 55 333 2.0 4.0 0.00 0.00 0.00 66 1016.9
20200404200604 56 329 2.0 4.0 0.00 0.00 0.00 66 1016.9
20200404200504 56 330 2.0 4.0 0.00 0.00 0.00 66 1016.9
20200404200404 56 329 2.0 4.0 0.00 0.00 0.00 66 1016.9
20200404200304 56 327 2.0 4.0 0.00 0.00 0.00 68 1016.9
20200404200204 55 325 1.0 4.0 0.00 0.00 0.00 68 1016.9
20200404200104 55 325 1.0 4.0 0.00 0.00 0.00 68 1016.9
20200404200004 55 324 1.0 4.0 0.00 0.00 0.00 68 1016.9
20200404195904 55 322 1.0 3.0 0.00 0.00 0.00 68 1016.9
20200404195804 55 322 1.0 2.0 0.00 0.00 0.00 68 1016.9
20200404195704 55 324 1.0 3.0 0.00 0.00 0.00 68 1016.8
20200404195603 55 330 1.0 3.0 0.00 0.00 0.00 68 1016.9
20200404195503 55 339 1.0 3.0 0.00 0.00 0.00 68 1016.9
20200404195404 55 345 1.0 3.0 0.00 0.00 0.00 69 1016.9
20200404195303 55 354 2.0 4.0 0.00 0.00 0.00 69 1016.9
20200404195203 55 356 2.0 4.0 0.00 0.00 0.00 69 1016.8
20200404195104 55 8 2.0 8.0 0.00 0.00 0.00 69 1016.9
20200404195004 55 14 3.0 8.0 0.00 0.00 0.00 69 1016.9
20200404194903 55 32 3.0 8.0 0.00 0.00 0.00 69 1016.8
20200404194804 55 51 3.0 8.0 0.00 0.00 0.00 69 1016.8
20200404194703 55 68 3.0 8.0 0.00 0.00 0.00 69 1016.8
20200404194603 55 78 4.0 8.0 0.00 0.00 0.00 69 1016.8
20200404194503 55 86 4.0 8.0 0.00 0.00 0.00 68 1016.8
20200404194404 56 90 4.0 8.0 0.00 0.00 0.00 68 1016.8
20200404194304 56 94 4.0 8.0 0.00 0.00 0.00 68 1016.8
20200404194203 56 96 4.0 8.0 0.00 0.00 0.00 68 1016.8
20200404194103 56 103 4.0 7.0 0.00 0.00 0.00 68 1016.7
20200404194003 56 100 4.0 7.0 0.00 0.00 0.00 68 1016.7
20200404193903 56 94 4.0 7.0 0.00 0.00 0.00 69 1016.8
20200404193803 56 88 4.0 7.0 0.00 0.00 0.00 69 1016.7
20200404193703 56 81 4.0 7.0 0.00 0.00 0.00 69 1016.7
20200404193603 56 76 3.0 7.0 0.00 0.00 0.00 69 1016.7
20200404193503 56 71 3.0 5.0 0.00 0.00 0.00 69 1016.7
20200404193403 56 68 3.0 5.0 0.00 0.00 0.00 69 1016.7
20200404193303 56 67 3.0 5.0 0.00 0.00 0.00 69 1016.7
20200404193203 56 67 3.0 5.0 0.00 0.00 0.00 69 1016.7
20200404193103 56 66 4.0 5.0 0.00 0.00 0.00 69 1016.7
20200404193004 56 66 4.0 5.0 0.00 0.00 0.00 69 1016.6
20200404192903 56 67 4.0 5.0 0.00 0.00 0.00 69 1016.6
20200404192803 56 67 4.0 5.0 0.00 0.00 0.00 70 1016.6
20200404192703 56 68 3.0 5.0 0.00 0.00 0.00 70 1016.6
20200404192603 56 70 4.0 5.0 0.00 0.00 0.00 70 1016.6
20200404192504 56 72 3.0 5.0 0.00 0.00 0.00 70 1016.6
20200404192403 56 73 3.0 5.0 0.00 0.00 0.00 70 1016.6
20200404192303 56 74 3.0 5.0 0.00 0.00 0.00 70 1016.5
20200404192203 56 74 3.0 5.0 0.00 0.00 0.00 70 1016.5
20200404192103 56 74 3.0 5.0 0.00 0.00 0.00 70 1016.5
20200404192003 56 75 3.0 5.0 0.00 0.00 0.00 70 1016.4
20200404191904 56 73 3.0 6.0 0.00 0.00 0.00 70 1016.4
20200404191804 56 71 3.0 6.0 0.00 0.00 0.00 70 1016.4
20200404191704 56 67 4.0 6.0 0.00 0.00 0.00 70 1016.4
20200404191604 56 62 4.0 6.0 0.00 0.00 0.00 71 1016.3
20200404191504 56 58 4.0 6.0 0.00 0.00 0.00 71 1016.3
20200404191404 56 54 4.0 6.0 0.00 0.00 0.00 71 1016.3
20200404191304 55 51 4.0 6.0 0.00 0.00 0.00 71 1016.3
20200404191204 55 50 4.0 6.0 0.00 0.00 0.00 71 1016.3
20200404191104 55 51 4.0 6.0 0.00 0.00 0.00 71 1016.3
20200404191004 55 51 4.0 6.0 0.00 0.00 0.00 72 1016.3
20200404190904 55 52 4.0 6.0 0.00 0.00 0.00 72 1016.3
20200404190804 55 53 4.0 6.0 0.00 0.00 0.00 72 1016.4
20200404190704 55 54 4.0 6.0 0.00 0.00 0.00 72 1016.2
20200404190604 55 55 4.0 6.0 0.00 0.00 0.00 72 1016.2
20200404190504 55 56 4.0 6.0 0.00 0.00 0.00 72 1016.2
20200404190404 55 57 4.0 6.0 0.00 0.00 0.00 72 1016.2
20200404190304 55 57 4.0 6.0 0.00 0.00 0.00 72 1016.2
20200404190204 55 55 4.0 6.0 0.00 0.00 0.00 72 1016.2
20200404190104 55 53 4.0 6.0 0.00 0.00 0.00 72 1016.2
20200404190004 55 51 3.0 5.0 0.00 0.00 0.00 72 1016.1
20200404185904 55 50 3.0 5.0 0.00 0.00 0.00 72 1016.1
20200404185804 55 49 3.0 5.0 0.00 0.00 0.00 72 1016.2
20200404185704 55 49 3.0 5.0 0.00 0.00 0.00 72 1016.1
20200404185604 55 50 3.0 4.0 0.00 0.00 0.00 72 1016.1
20200404185504 55 53 3.0 4.0 0.00 0.00 0.00 72 1016.1
20200404185404 55 55 3.0 5.0 0.00 0.00 0.00 72 1016.1
20200404185304 55 56 3.0 5.0 0.00 0.00 0.00 72 1016.1
20200404185204 55 57 3.0 5.0 0.00 0.00 0.00 72 1016.1
20200404185104 55 59 3.0 5.0 0.00 0.00 0.00 72 1016.1
20200404185004 55 60 3.0 5.0 0.00 0.00 0.00 72 1016.0
20200404184904 55 60 4.0 5.0 0.00 0.00 0.00 72 1016.0
20200404184804 56 60 4.0 5.0 0.00 0.00 0.00 72 1016.0
20200404184704 56 59 4.0 5.0 0.00 0.00 0.00 72 1016.0
20200404184604 56 58 4.0 5.0 0.00 0.00 0.00 72 1016.0
20200404184504 56 56 4.0 5.0 0.00 0.00 0.00 71 1015.9
20200404184404 56 55 3.0 5.0 0.00 0.00 0.00 71 1015.9
20200404184304 56 54 3.0 5.0 0.00 0.00 0.00 71 1015.9
20200404184204 56 54 3.0 5.0 0.00 0.00 0.00 71 1015.8
20200404184104 56 54 3.0 5.0 0.00 0.00 0.00 70 1015.8
20200404184003 56 55 4.0 6.0 0.00 0.00 0.00 70 1015.8
20200404183903 56 56 4.0 6.0 0.00 0.00 0.00 70 1015.8
20200404183804 56 56 4.0 6.0 0.00 0.00 0.00 70 1015.8
20200404183704 56 58 4.0 6.0 0.00 0.00 0.00 69 1015.7
20200404183603 56 59 4.0 7.0 0.00 0.00 0.00 69 1015.8
20200404183503 56 61 5.0 7.0 0.00 0.00 0.00 69 1015.8
20200404183403 56 63 5.0 7.0 0.00 0.00 0.00 69 1015.7
20200404183303 56 65 5.0 7.0 0.00 0.00 0.00 69 1015.7
20200404183203 56 66 5.0 7.0 0.00 0.00 0.00 69 1015.6
20200404183104 56 68 6.0 7.0 0.00 0.00 0.00 69 1015.6
20200404183003 56 68 6.0 7.0 0.00 0.00 0.00 69 1015.6
20200404182903 56 70 6.0 7.0 0.00 0.00 0.00 67 1015.5
20200404182803 56 71 6.0 7.0 0.00 0.00 0.00 67 1015.5
20200404182703 56 72 6.0 7.0 0.00 0.00 0.00 66 1015.6
20200404182603 56 72 6.0 7.0 0.00 0.00 0.00 66 1015.6
20200404182503 56 72 6.0 7.0 0.00 0.00 0.00 65 1015.6
20200404182403 57 72 6.0 7.0 0.00 0.00 0.00 64 1015.6
20200404182304 57 71 6.0 7.0 0.00 0.00 0.00 63 1015.6
20200404182203 57 71 5.0 7.0 0.00 0.00 0.00 62 1015.6
20200404182103 57 70 5.0 7.0 0.00 0.00 0.00 62 1015.5
20200404182003 57 68 5.0 7.0 0.00 0.00 0.00 61 1015.5
20200404181903 57 67 5.0 7.0 0.00 0.00 0.00 60 1015.4
20200404181803 57 66 4.0 6.0 0.00 0.00 0.00 60 1015.4
20200404181703 57 65 4.0 6.0 0.00 0.00 0.00 59 1015.4
20200404181603 57 65 4.0 6.0 0.00 0.00 0.00 58 1015.4
20200404181503 57 65 4.0 6.0 0.00 0.00 0.00 58 1015.4
20200404181403 57 64 4.0 6.0 0.00 0.00 0.00 58 1015.4
20200404181303 57 64 4.0 5.0 0.00 0.00 0.00 58 1015.3
20200404181203 57 64 4.0 5.0 0.00 0.00 0.00 58 1015.3
20200404181104 57 64 4.0 5.0 0.00 0.00 0.00 58 1015.3
20200404181004 58 63 4.0 5.0 0.00 0.00 0.00 58 1015.3
20200404180904 58 63 4.0 5.0 0.00 0.00 0.00 57 1015.2
20200404180804 58 61 4.0 5.0 0.00 0.00 0.00 57 1015.3
20200404180704 58 59 4.0 5.0 0.00 0.00 0.00 57 1015.3
20200404180604 58 57 3.0 5.0 0.00 0.00 0.00 57 1015.3
20200404180504 58 55 3.0 5.0 0.00 0.00 0.00 57 1015.2
20200404180404 58 57 3.0 5.0 0.00 0.00 0.00 57 1015.2
20200404180304 58 56 3.0 5.0 0.00 0.00 0.00 57 1015.3
20200404180204 58 56 2.0 4.0 0.00 0.00 0.00 58 1015.3
20200404180104 58 56 2.0 4.0 0.00 0.00 0.00 58 1015.2
20200404180004 58 56 2.0 4.0 0.00 0.00 0.00 58 1015.2
20200404175904 58 57 1.0 4.0 0.00 0.00 0.00 57 1015.2
20200404175804 58 58 1.0 4.0 0.00 0.00 0.00 57 1015.1
20200404175704 58 65 1.0 3.0 0.00 0.00 0.00 57 1015.1
20200404175604 58 78 0.0 2.0 0.00 0.00 0.00 57 1015.1
20200404175504 58 100 0.0 2.0 0.00 0.00 0.00 56 1015.1
20200404175404 59 150 0.0 1.0 0.00 0.00 0.00 56 1015.1
20200404175304 59 0 0.0 0.0 0.00 0.00 0.00 55 1015.1
20200404175204 59 153 0.0 1.0 0.00 0.00 0.00 55 1015.1
20200404175104 59 153 0.0 1.0 0.00 0.00 0.00 55 1015.0
20200404175004 60 153 0.0 1.0 0.00 0.00 0.00 54 1015.0
20200404174904 60 153 0.0 1.0 0.00 0.00 0.00 54 1015.0
20200404174804 60 153 0.0 1.0 0.00 0.00 0.00 53 1015.0
20200404174704 60 153 0.0 1.0 0.00 0.00 0.00 53 1015.0
20200404174604 60 153 0.0 1.0 0.00 0.00 0.00 53 1015.0
20200404174504 60 171 0.0 1.0 0.00 0.00 0.00 53 1014.9
20200404174404 60 175 0.0 1.0 0.00 0.00 0.00 53 1014.9
20200404174304 60 175 0.0 1.0 0.00 0.00 0.00 53 1014.9
20200404174204 60 173 0.0 1.0 0.00 0.00 0.00 52 1014.8
20200404174104 61 172 1.0 1.0 0.00 0.00 0.00 52 1014.8
20200404174004 61 170 1.0 2.0 0.00 0.00 0.00 52 1014.8
20200404173904 61 166 1.0 2.0 0.00 0.00 0.00 52 1014.8
20200404173804 61 169 1.0 2.0 0.00 0.00 0.00 51 1014.8
20200404173704 61 168 1.0 3.0 0.00 0.00 0.00 51 1014.9
20200404173604 61 168 1.0 3.0 0.00 0.00 0.00 51 1014.9
20200404173504 61 166 2.0 4.0 0.00 0.00 0.00 51 1014.9
20200404173404 61 164 2.0 4.0 0.00 0.00 0.00 51 1014.9
20200404173304 61 161 2.0 4.0 0.00 0.00 0.00 51 1014.8
20200404173204 61 155 2.0 5.0 0.00 0.00 0.00 51 1014.8
20200404173104 61 153 2.0 5.0 0.00 0.00 0.00 51 1014.8
20200404173003 61 149 2.0 5.0 0.00 0.00 0.00 51 1014.9
20200404172903 61 147 3.0 5.0 0.00 0.00 0.00 51 1014.9
20200404172804 61 143 2.0 5.0 0.00 0.00 0.00 51 1014.9
20200404172703 61 141 2.0 5.0 0.00 0.00 0.00 51 1014.9
20200404172604 61 139 2.0 5.0 0.00 0.00 0.00 51 1014.9
20200404172503 61 135 2.0 5.0 0.00 0.00 0.00 51 1014.9
20200404172403 61 132 2.0 5.0 0.00 0.00 0.00 51 1014.8
20200404172303 62 132 1.0 5.0 0.00 0.00 0.00 50 1014.8
20200404172203 62 141 1.0 4.0 0.00 0.00 0.00 50 1014.8
20200404172103 62 158 1.0 4.0 0.00 0.00 0.00 50 1014.8
20200404172004 62 189 1.0 4.0 0.00 0.00 0.00 50 1014.8
20200404171903 63 213 1.0 4.0 0.00 0.00 0.00 49 1014.8
20200404171803 63 220 1.0 4.0 0.00 0.00 0.00 49 1014.8
20200404171703 63 219 1.0 4.0 0.00 0.00 0.00 49 1014.7
20200404171603 63 221 1.0 4.0 0.00 0.00 0.00 48 1014.7
20200404171503 63 223 2.0 4.0 0.00 0.00 0.00 48 1014.7
20200404171403 63 224 2.0 4.0 0.00 0.00 0.00 48 1014.7
20200404171303 63 227 2.0 4.0 0.00 0.00 0.00 47 1014.7
20200404171203 63 228 3.0 6.0 0.00 0.00 0.00 47 1014.7
20200404171103 63 231 3.0 6.0 0.00 0.00 0.00 47 1014.7
20200404171003 63 233 3.0 6.0 0.00 0.00 0.00 47 1014.7
20200404170903 63 232 3.0 6.0 0.00 0.00 0.00 47 1014.7
20200404170803 63 234 3.0 6.0 0.00 0.00 0.00 47 1014.7
20200404170703 63 235 3.0 6.0 0.00 0.00 0.00 46 1014.7
20200404170603 63 235 3.0 6.0 0.00 0.00 0.00 46 1014.6
20200404170503 63 234 3.0 6.0 0.00 0.00 0.00 46 1014.6
20200404170403 63 234 3.0 6.0 0.00 0.00 0.00 46 1014.6
20200404170304 63 233 3.0 6.0 0.00 0.00 0.00 46 1014.6
20200404170204 64 232 3.0 6.0 0.00 0.00 0.00 45 1014.7
20200404170104 64 232 3.0 6.0 0.00 0.00 0.00 45 1014.6
20200404170004 64 232 4.0 6.0 0.00 0.00 0.00 45 1014.6
20200404165904 64 232 3.0 6.0 0.00 0.00 0.00 45 1014.6
20200404165804 64 234 3.0 6.0 0.00 0.00 0.00 45 1014.6
20200404165704 64 235 3.0 6.0 0.00 0.00 0.00 44 1014.6
20200404165604 64 237 4.0 6.0 0.00 0.00 0.00 44 1014.5
20200404165504 64 239 4.0 6.0 0.00 0.00 0.00 44 1014.5
20200404165404 64 240 4.0 6.0 0.00 0.00 0.00 44 1014.6
20200404165304 64 240 4.0 6.0 0.00 0.00 0.00 44 1014.5
20200404165204 64 243 4.0 6.0 0.00 0.00 0.00 44 1014.5
20200404165104 64 243 4.0 6.0 0.00 0.00 0.00 43 1014.5
20200404165004 64 243 4.0 6.0 0.00 0.00 0.00 43 1014.5
20200404164904 64 244 4.0 6.0 0.00 0.00 0.00 43 1014.5
20200404164804 64 243 4.0 6.0 0.00 0.00 0.00 43 1014.6
20200404164704 64 243 4.0 6.0 0.00 0.00 0.00 43 1014.6
20200404164604 64 242 4.0 7.0 0.00 0.00 0.00 43 1014.5
20200404164504 64 242 4.0 7.0 0.00 0.00 0.00 43 1014.5
20200404164404 64 242 4.0 7.0 0.00 0.00 0.00 43 1014.5
20200404164304 64 245 4.0 7.0 0.00 0.00 0.00 42 1014.5
20200404164204 64 246 4.0 7.0 0.00 0.00 0.00 42 1014.5
20200404164104 64 247 4.0 7.0 0.00 0.00 0.00 42 1014.6
20200404164004 64 248 4.0 10.0 0.00 0.00 0.00 42 1014.5
20200404163904 64 248 5.0 11.0 0.00 0.00 0.00 42 1014.5
20200404163804 64 248 5.0 11.0 0.00 0.00 0.00 42 1014.5
20200404163703 64 250 6.0 11.0 0.00 0.00 0.00 42 1014.5
20200404163604 64 251 6.0 11.0 0.00 0.00 0.00 42 1014.5
20200404163504 64 252 7.0 11.0 0.00 0.00 0.00 42 1014.6
20200404163404 64 250 7.0 11.0 0.00 0.00 0.00 41 1014.6
20200404163304 64 249 7.0 11.0 0.00 0.00 0.00 41 1014.5
20200404163204 64 249 7.0 11.0 0.00 0.00 0.00 41 1014.5
20200404163103 64 248 7.0 11.0 0.00 0.00 0.00 40 1014.5
20200404163003 64 248 8.0 11.0 0.00 0.00 0.00 40 1014.4
20200404162903 64 248 7.0 11.0 0.00 0.00 0.00 41 1014.4
20200404162803 64 248 7.0 11.0 0.00 0.00 0.00 40 1014.5
20200404162704 64 247 7.0 11.0 0.00 0.00 0.00 40 1014.5
20200404162603 64 244 7.0 11.0 0.00 0.00 0.00 40 1014.5
20200404162504 65 244 7.0 11.0 0.00 0.00 0.00 40 1014.5
20200404162403 65 245 7.0 11.0 0.00 0.00 0.00 40 1014.5
20200404162303 65 245 6.0 11.0 0.00 0.00 0.00 39 1014.5
20200404162204 65 244 6.0 11.0 0.00 0.00 0.00 40 1014.4
20200404162103 65 243 6.0 11.0 0.00 0.00 0.00 40 1014.4
20200404162004 65 242 6.0 11.0 0.00 0.00 0.00 41 1014.4
20200404161904 65 240 6.0 9.0 0.00 0.00 0.00 41 1014.4
20200404161803 65 238 6.0 9.0 0.00 0.00 0.00 41 1014.4
20200404161703 65 236 6.0 9.0 0.00 0.00 0.00 41 1014.4
20200404161604 65 237 6.0 9.0 0.00 0.00 0.00 41 1014.4
20200404161503 65 235 6.0 9.0 0.00 0.00 0.00 41 1014.5
20200404161404 65 236 6.0 9.0 0.00 0.00 0.00 41 1014.5
20200404161303 65 237 6.0 9.0 0.00 0.00 0.00 42 1014.5
20200404161204 65 239 6.0 9.0 0.00 0.00 0.00 42 1014.4
20200404161104 65 239 6.0 9.0 0.00 0.00 0.00 42 1014.4
20200404161003 65 240 6.0 10.0 0.00 0.00 0.00 41 1014.5
20200404160904 65 241 6.0 10.0 0.00 0.00 0.00 40 1014.5
20200404160803 65 241 6.0 10.0 0.00 0.00 0.00 41 1014.5
20200404160704 65 244 6.0 11.0 0.00 0.00 0.00 41 1014.5
20200404160603 65 245 6.0 11.0 0.00 0.00 0.00 41 1014.5
20200404160503 65 246 6.0 11.0 0.00 0.00 0.00 42 1014.5
20200404160404 65 246 6.0 11.0 0.00 0.00 0.00 41 1014.5
20200404160303 65 245 6.0 11.0 0.00 0.00 0.00 41 1014.5
20200404160203 65 242 6.0 11.0 0.00 0.00 0.00 40 1014.4
20200404160103 65 243 6.0 11.0 0.00 0.00 0.00 40 1014.4
20200404160003 65 243 6.0 12.0 0.00 0.00 0.00 40 1014.5
20200404155903 65 244 6.0 12.0 0.00 0.00 0.00 40 1014.6
20200404155803 65 244 6.0 12.0 0.00 0.00 0.00 40 1014.6
20200404155703 65 245 6.0 12.0 0.00 0.00 0.00 40 1014.5
20200404155603 65 244 7.0 12.0 0.00 0.00 0.00 40 1014.5
20200404155503 65 244 7.0 12.0 0.00 0.00 0.00 40 1014.5
20200404155403 65 244 7.0 12.0 0.00 0.00 0.00 40 1014.5
20200404155303 65 244 7.0 12.0 0.00 0.00 0.00 40 1014.5
20200404155203 65 245 7.0 12.0 0.00 0.00 0.00 39 1014.4
20200404155103 65 245 7.0 12.0 0.00 0.00 0.00 39 1014.3
20200404155003 65 243 7.0 11.0 0.00 0.00 0.00 39 1014.3
20200404154903 65 243 7.0 11.0 0.00 0.00 0.00 39 1014.4
20200404154803 65 243 7.0 11.0 0.00 0.00 0.00 39 1014.4
20200404154703 65 242 7.0 11.0 0.00 0.00 0.00 39 1014.3
20200404154603 65 242 7.0 11.0 0.00 0.00 0.00 39 1014.3
20200404154504 66 240 7.0 11.0 0.00 0.00 0.00 39 1014.3
20200404154403 65 238 7.0 11.0 0.00 0.00 0.00 41 1014.4
20200404154303 65 236 7.0 11.0 0.00 0.00 0.00 41 1014.4
20200404154203 65 235 7.0 11.0 0.00 0.00 0.00 40 1014.4
20200404154103 65 233 7.0 11.0 0.00 0.00 0.00 41 1014.4
20200404154003 65 232 6.0 11.0 0.00 0.00 0.00 40 1014.4
20200404153903 65 230 6.0 11.0 0.00 0.00 0.00 42 1014.4
20200404153803 65 227 6.0 11.0 0.00 0.00 0.00 42 1014.2
20200404153703 65 227 6.0 11.0 0.00 0.00 0.00 42 1014.2
20200404153603 65 226 6.0 11.0 0.00 0.00 0.00 43 1014.4
20200404153503 65 226 7.0 13.0 0.00 0.00 0.00 42 1014.4
20200404153403 65 226 7.0 13.0 0.00 0.00 0.00 42 1014.3
20200404153303 65 226 7.0 13.0 0.00 0.00 0.00 42 1014.3
20200404153203 65 227 7.0 13.0 0.00 0.00 0.00 43 1014.3
20200404153104 65 225 7.0 13.0 0.00 0.00 0.00 43 1014.3
20200404153004 65 225 7.0 13.0 0.00 0.00 0.00 43 1014.3
20200404152904 65 224 8.0 13.0 0.00 0.00 0.00 43 1014.3
20200404152804 65 225 8.0 13.0 0.00 0.00 0.00 44 1014.3
20200404152704 65 225 8.0 13.0 0.00 0.00 0.00 43 1014.3
20200404152604 65 226 8.0 13.0 0.00 0.00 0.00 44 1014.4
20200404152504 65 228 8.0 13.0 0.00 0.00 0.00 44 1014.4
20200404152404 65 228 8.0 13.0 0.00 0.00 0.00 44 1014.2
20200404152304 65 230 8.0 13.0 0.00 0.00 0.00 43 1014.2
20200404152204 65 231 8.0 13.0 0.00 0.00 0.00 44 1014.2
20200404152104 65 233 8.0 13.0 0.00 0.00 0.00 43 1014.3
20200404152004 65 235 9.0 13.0 0.00 0.00 0.00 43 1014.3
20200404151904 65 237 9.0 14.0 0.00 0.00 0.00 43 1014.3
20200404151804 65 238 9.0 16.0 0.00 0.00 0.00 43 1014.2
20200404151704 65 241 9.0 16.0 0.00 0.00 0.00 42 1014.2
20200404151604 65 240 10.0 16.0 0.00 0.00 0.00 42 1014.1
20200404151504 65 239 10.0 16.0 0.00 0.00 0.00 41 1014.1
20200404151404 65 239 10.0 16.0 0.00 0.00 0.00 41 1014.1
20200404151304 65 240 9.0 16.0 0.00 0.00 0.00 41 1014.1
20200404151204 65 240 9.0 16.0 0.00 0.00 0.00 41 1014.1
20200404151104 65 241 9.0 16.0 0.00 0.00 0.00 41 1014.1
20200404151004 65 241 9.0 16.0 0.00 0.00 0.00 40 1014.1
20200404150904 65 241 9.0 16.0 0.00 0.00 0.00 40 1014.1
20200404150804 65 242 9.0 16.0 0.00 0.00 0.00 40 1014.1
20200404150704 65 240 8.0 16.0 0.00 0.00 0.00 40 1014.1
20200404150604 65 239 8.0 13.0 0.00 0.00 0.00 42 1014.2
20200404150504 65 239 8.0 14.0 0.00 0.00 0.00 43 1014.1
20200404150404 65 238 9.0 15.0 0.00 0.00 0.00 43 1014.1
20200404150304 65 238 9.0 15.0 0.00 0.00 0.00 42 1014.1
20200404150204 65 238 9.0 15.0 0.00 0.00 0.00 43 1014.1
20200404150104 65 236 10.0 16.0 0.00 0.00 0.00 43 1014.1
20200404150004 65 235 10.0 17.0 0.00 0.00 0.00 44 1014.1
20200404145904 65 235 11.0 17.0 0.00 0.00 0.00 43 1014.1
20200404145804 65 235 11.0 18.0 0.00 0.00 0.00 44 1014.1
20200404145704 65 237 11.0 18.0 0.00 0.00 0.00 44 1014.1
20200404145603 65 238 11.0 18.0 0.00 0.00 0.00 45 1014.1
20200404145504 65 239 11.0 18.0 0.00 0.00 0.00 46 1014.0
20200404145403 65 240 11.0 18.0 0.00 0.00 0.00 45 1014.0
20200404145303 65 239 11.0 18.0 0.00 0.00 0.00 45 1014.0
20200404145203 65 240 11.0 18.0 0.00 0.00 0.00 45 1014.0
20200404145104 65 241 11.0 18.0 0.00 0.00 0.00 45 1014.0
20200404145003 65 241 11.0 18.0 0.00 0.00 0.00 45 1013.9
20200404144903 65 242 11.0 18.0 0.00 0.00 0.00 45 1014.0
20200404144803 65 241 11.0 17.0 0.00 0.00 0.00 44 1014.0
20200404144703 65 240 11.0 17.0 0.00 0.00 0.00 46 1013.9
20200404144603 65 238 11.0 17.0 0.00 0.00 0.00 46 1013.9
20200404144503 65 237 11.0 17.0 0.00 0.00 0.00 45 1014.0
20200404144403 65 235 11.0 17.0 0.00 0.00 0.00 45 1013.9
20200404144303 65 235 11.0 17.0 0.00 0.00 0.00 45 1013.9
20200404144203 65 235 11.0 17.0 0.00 0.00 0.00 45 1014.0
20200404144103 65 235 11.0 17.0 0.00 0.00 0.00 44 1014.0
20200404144003 65 235 11.0 17.0 0.00 0.00 0.00 44 1013.9
20200404143903 65 236 11.0 17.0 0.00 0.00 0.00 43 1014.1
20200404143803 65 236 11.0 17.0 0.00 0.00 0.00 42 1014.1
20200404143703 65 236 11.0 17.0 0.00 0.00 0.00 41 1013.9
20200404143603 65 237 10.0 17.0 0.00 0.00 0.00 40 1013.9
20200404143503 65 239 10.0 17.0 0.00 0.00 0.00 40 1013.9
20200404143403 65 241 10.0 17.0 0.00 0.00 0.00 42 1013.9
20200404143303 65 243 10.0 17.0 0.00 0.00 0.00 43 1013.9
20200404143203 66 242 9.0 17.0 0.00 0.00 0.00 42 1013.9
20200404143103 66 243 9.0 17.0 0.00 0.00 0.00 42 1013.9
20200404143003 66 243 9.0 17.0 0.00 0.00 0.00 41 1013.9
20200404142903 66 243 9.0 17.0 0.00 0.00 0.00 41 1014.0
20200404142803 66 244 9.0 17.0 0.00 0.00 0.00 42 1014.0
20200404142703 66 246 10.0 20.0 0.00 0.00 0.00 42 1013.9
20200404142603 66 246 10.0 20.0 0.00 0.00 0.00 42 1014.1
20200404142503 66 245 10.0 20.0 0.00 0.00 0.00 42 1014.1
20200404142403 66 245 10.0 20.0 0.00 0.00 0.00 41 1014.1
20200404142303 66 245 11.0 20.0 0.00 0.00 0.00 41 1014.1
20200404142203 66 245 11.0 20.0 0.00 0.00 0.00 40 1013.9
20200404142103 66 244 11.0 20.0 0.00 0.00 0.00 41 1014.0
20200404142004 66 243 11.0 20.0 0.00 0.00 0.00 40 1014.0
20200404141904 66 243 11.0 20.0 0.00 0.00 0.00 39 1014.1
20200404141804 66 242 11.0 20.0 0.00 0.00 0.00 39 1014.1
20200404141704 66 242 10.0 18.0 0.00 0.00 0.00 39 1014.0
20200404141604 66 241 10.0 18.0 0.00 0.00 0.00 39 1014.0
20200404141504 66 240 10.0 15.0 0.00 0.00 0.00 39 1014.0
20200404141404 66 238 10.0 15.0 0.00 0.00 0.00 40 1013.9
20200404141304 66 236 9.0 15.0 0.00 0.00 0.00 40 1014.0
20200404141204 67 238 9.0 15.0 0.00 0.00 0.00 40 1014.0
20200404141104 67 238 9.0 15.0 0.00 0.00 0.00 39 1013.9
20200404141004 67 236 9.0 15.0 0.00 0.00 0.00 40 1013.9
20200404140904 67 235 9.0 16.0 0.00 0.00 0.00 40 1013.9
20200404140804 67 235 9.0 16.0 0.00 0.00 0.00 39 1013.9
20200404140704 66 234 10.0 16.0 0.00 0.00 0.00 39 1013.9
20200404140604 66 234 10.0 16.0 0.00 0.00 0.00 40 1013.9
20200404140504 66 236 10.0 18.0 0.00 0.00 0.00 41 1013.9
20200404140404 66 237 10.0 18.0 0.00 0.00 0.00 41 1013.9
20200404140304 66 237 10.0 18.0 0.00 0.00 0.00 42 1014.0
20200404140204 66 236 10.0 18.0 0.00 0.00 0.00 41 1014.0
20200404140104 66 238 10.0 18.0 0.00 0.00 0.00 42 1013.9
20200404140004 66 241 10.0 18.0 0.00 0.00 0.00 41 1013.9
20200404135904 66 242 10.0 18.0 0.00 0.00 0.00 41 1013.9
20200404135804 66 243 10.0 18.0 0.00 0.00 0.00 41 1014.0
20200404135704 66 242 10.0 18.0 0.00 0.00 0.00 41 1014.0
20200404135604 66 242 10.0 18.0 0.00 0.00 0.00 41 1013.9
20200404135503 66 243 10.0 18.0 0.00 0.00 0.00 41 1013.9
20200404135404 66 242 10.0 18.0 0.00 0.00 0.00 41 1013.9
20200404135304 66 243 10.0 18.0 0.00 0.00 0.00 41 1013.9
20200404135204 66 243 11.0 18.0 0.00 0.00 0.00 40 1013.9
20200404135103 66 243 11.0 18.0 0.00 0.00 0.00 39 1013.9
20200404135004 66 242 11.0 18.0 0.00 0.00 0.00 40 1013.9
20200404134904 66 241 11.0 18.0 0.00 0.00 0.00 39 1013.9
20200404134804 66 242 10.0 18.0 0.00 0.00 0.00 38 1013.8
20200404134703 66 244 10.0 17.0 0.00 0.00 0.00 38 1013.8
20200404134603 67 245 10.0 16.0 0.00 0.00 0.00 39 1013.8
20200404134504 67 243 10.0 17.0 0.00 0.00 0.00 39 1013.9
20200404134404 67 243 10.0 17.0 0.00 0.00 0.00 39 1013.9
20200404134303 67 243 10.0 17.0 0.00 0.00 0.00 39 1013.9
20200404134203 67 242 10.0 17.0 0.00 0.00 0.00 38 1013.9
20200404134103 67 241 10.0 17.0 0.00 0.00 0.00 39 1013.9
20200404134003 67 241 10.0 17.0 0.00 0.00 0.00 40 1013.9
20200404133903 67 241 10.0 17.0 0.00 0.00 0.00 40 1013.9
20200404133803 67 239 10.0 17.0 0.00 0.00 0.00 40 1013.9
20200404133703 67 239 10.0 17.0 0.00 0.00 0.00 40 1013.9
20200404133604 67 239 10.0 17.0 0.00 0.00 0.00 39 1013.9
20200404133503 67 239 10.0 16.0 0.00 0.00 0.00 39 1014.0
20200404133403 67 240 10.0 15.0 0.00 0.00 0.00 41 1014.0
20200404133303 67 239 10.0 16.0 0.00 0.00 0.00 39 1013.9
20200404133203 67 239 10.0 16.0 0.00 0.00 0.00 40 1013.9
20200404133103 67 241 10.0 16.0 0.00 0.00 0.00 39 1013.9
20200404133003 67 239 10.0 16.0 0.00 0.00 0.00 40 1013.9
20200404132903 67 240 10.0 16.0 0.00 0.00 0.00 40 1013.9
20200404132803 67 239 11.0 16.0 0.00 0.00 0.00 40 1013.9
20200404132703 66 239 11.0 16.0 0.00 0.00 0.00 39 1014.0
20200404132603 66 239 10.0 16.0 0.00 0.00 0.00 38 1014.0
20200404132504 66 241 10.0 16.0 0.00 0.00 0.00 40 1014.0
20200404132404 66 239 11.0 16.0 0.00 0.00 0.00 41 1014.0
20200404132304 66 239 11.0 16.0 0.00 0.00 0.00 40 1014.0
20200404132204 66 240 11.0 16.0 0.00 0.00 0.00 40 1014.0
20200404132104 66 239 10.0 16.0 0.00 0.00 0.00 41 1014.0
20200404132004 66 240 11.0 16.0 0.00 0.00 0.00 41 1014.1
20200404131904 66 239 11.0 18.0 0.00 0.00 0.00 40 1014.1
20200404131804 66 240 11.0 18.0 0.00 0.00 0.00 40 1014.1
20200404131704 66 241 11.0 18.0 0.00 0.00 0.00 40 1014.1
20200404131604 66 241 11.0 18.0 0.00 0.00 0.00 40 1014.1
20200404131505 66 239 11.0 18.0 0.00 0.00 0.00 40 1014.1
20200404131404 66 240 10.0 18.0 0.00 0.00 0.00 40 1014.1
20200404131304 66 243 10.0 18.0 0.00 0.00 0.00 41 1014.1
20200404131204 66 241 11.0 18.0 0.00 0.00 0.00 40 1014.1
20200404131104 66 240 11.0 18.0 0.00 0.00 0.00 40 1014.1
20200404131004 66 239 11.0 18.0 0.00 0.00 0.00 40 1014.1
20200404130904 67 240 11.0 17.0 0.00 0.00 0.00 38 1014.1
20200404130804 67 241 10.0 17.0 0.00 0.00 0.00 39 1014.1
20200404130704 67 243 11.0 17.0 0.00 0.00 0.00 43 1014.1
20200404130604 67 245 11.0 17.0 0.00 0.00 0.00 41 1014.1
20200404130504 66 244 11.0 17.0 0.00 0.00 0.00 40 1014.1
20200404130404 66 243 11.0 17.0 0.00 0.00 0.00 40 1014.1
20200404130303 66 241 11.0 17.0 0.00 0.00 0.00 40 1014.1
20200404130203 66 241 11.0 17.0 0.00 0.00 0.00 40 1014.2
20200404130104 67 243 11.0 17.0 0.00 0.00 0.00 39 1014.2
20200404130004 67 244 11.0 17.0 0.00 0.00 0.00 40 1014.2
20200404125903 67 245 11.0 17.0 0.00 0.00 0.00 38 1014.2
20200404125803 67 244 11.0 17.0 0.00 0.00 0.00 38 1014.2
20200404125704 67 242 11.0 17.0 0.00 0.00 0.00 39 1014.2
20200404125604 67 241 11.0 17.0 0.00 0.00 0.00 38 1014.2
20200404125504 67 241 11.0 17.0 0.00 0.00 0.00 37 1014.2
20200404125403 67 242 10.0 17.0 0.00 0.00 0.00 37 1014.2
20200404125303 67 243 10.0 18.0 0.00 0.00 0.00 37 1014.2
20200404125203 67 243 10.0 18.0 0.00 0.00 0.00 38 1014.2
20200404125103 67 241 10.0 18.0 0.00 0.00 0.00 39 1014.2
20200404125003 67 241 10.0 18.0 0.00 0.00 0.00 39 1014.2
20200404124903 67 241 10.0 18.0 0.00 0.00 0.00 37 1014.2
20200404124803 68 241 9.0 18.0 0.00 0.00 0.00 39 1014.2
20200404124703 68 241 9.0 18.0 0.00 0.00 0.00 39 1014.2
20200404124604 68 240 9.0 18.0 0.00 0.00 0.00 38 1014.3
20200404124504 67 239 9.0 18.0 0.00 0.00 0.00 39 1014.3
20200404124403 68 238 9.0 18.0 0.00 0.00 0.00 38 1014.3
20200404124303 68 238 8.0 16.0 0.00 0.00 0.00 39 1014.3
20200404124203 68 241 8.0 15.0 0.00 0.00 0.00 39 1014.3
20200404124103 68 244 8.0 15.0 0.00 0.00 0.00 40 1014.3
20200404124005 68 242 8.0 13.0 0.00 0.00 0.00 38 1014.3
20200404123903 68 243 8.0 13.0 0.00 0.00 0.00 39 1014.3
20200404123803 68 243 8.0 13.0 0.00 0.00 0.00 39 1014.4
20200404123703 68 242 8.0 13.0 0.00 0.00 0.00 39 1014.4
20200404123604 68 243 8.0 14.0 0.00 0.00 0.00 39 1014.4
20200404123504 68 244 8.0 14.0 0.00 0.00 0.00 39 1014.4
20200404123404 68 245 7.0 14.0 0.00 0.00 0.00 38 1014.4
20200404123304 68 245 8.0 14.0 0.00 0.00 0.00 37 1014.4
20200404123205 68 245 8.0 14.0 0.00 0.00 0.00 38 1014.4
20200404123104 68 247 8.0 14.0 0.00 0.00 0.00 40 1014.4
20200404123004 68 250 7.0 14.0 0.00 0.00 0.00 40 1014.4
20200404122904 68 249 7.0 14.0 0.00 0.00 0.00 38 1014.4
20200404122804 68 246 7.0 14.0 0.00 0.00 0.00 38 1014.4
20200404122704 68 244 7.0 14.0 0.00 0.00 0.00 38 1014.4
20200404122604 68 242 7.0 12.0 0.00 0.00 0.00 37 1014.4
20200404122504 68 237 7.0 12.0 0.00 0.00 0.00 38 1014.5
20200404122404 68 236 6.0 12.0 0.00 0.00 0.00 37 1014.5
20200404122304 68 233 6.0 12.0 0.00 0.00 0.00 36 1014.4
20200404122204 68 226 6.0 12.0 0.00 0.00 0.00 36 1014.5
20200404122104 68 221 6.0 12.0 0.00 0.00 0.00 37 1014.5
20200404122004 68 218 6.0 12.0 0.00 0.00 0.00 36 1014.5
20200404121904 68 218 6.0 12.0 0.00 0.00 0.00 36 1014.5
20200404121804 68 221 6.0 12.0 0.00 0.00 0.00 37 1014.5
20200404121704 68 222 6.0 11.0 0.00 0.00 0.00 37 1014.6
20200404121604 68 224 6.0 11.0 0.00 0.00 0.00 36 1014.6
20200404121504 68 231 6.0 11.0 0.00 0.00 0.00 36 1014.5
20200404121404 68 236 6.0 11.0 0.00 0.00 0.00 37 1014.5
20200404121304 68 243 6.0 11.0 0.00 0.00 0.00 37 1014.5
20200404121204 68 247 6.0 11.0 0.00 0.00 0.00 36 1014.6
20200404121104 68 247 6.0 11.0 0.00 0.00 0.00 36 1014.6
20200404121004 68 249 5.0 11.0 0.00 0.00 0.00 36 1014.7
20200404120904 68 250 5.0 11.0 0.00 0.00 0.00 35 1014.7
20200404120804 68 252 6.0 11.0 0.00 0.00 0.00 36 1014.6
20200404120704 68 256 6.0 13.0 0.00 0.00 0.00 37 1014.7
20200404120604 68 264 6.0 16.0 0.00 0.00 0.00 39 1014.7
20200404120504 68 266 6.0 17.0 0.00 0.00 0.00 38 1014.7
20200404120404 68 266 6.0 17.0 0.00 0.00 0.00 39 1014.7
20200404120304 67 261 5.0 17.0 0.00 0.00 0.00 38 1014.7
20200404120204 67 259 6.0 17.0 0.00 0.00 0.00 38 1014.7
20200404120104 67 255 6.0 17.0 0.00 0.00 0.00 38 1014.7
20200404120004 67 254 7.0 17.0 0.00 0.00 0.00 37 1014.8
20200404115904 67 252 7.0 17.0 0.00 0.00 0.00 37 1014.7
20200404115804 67 250 7.0 17.0 0.00 0.00 0.00 38 1014.7
20200404115704 67 245 6.0 17.0 0.00 0.00 0.00 39 1014.7
20200404115604 67 236 6.0 17.0 0.00 0.00 0.00 40 1014.7
20200404115504 67 229 6.0 12.0 0.00 0.00 0.00 39 1014.7
20200404115404 67 226 7.0 12.0 0.00 0.00 0.00 39 1014.8
20200404115304 67 226 7.0 12.0 0.00 0.00 0.00 38 1014.8
20200404115204 67 226 7.0 13.0 0.00 0.00 0.00 38 1014.7
20200404115104 67 231 8.0 13.0 0.00 0.00 0.00 38 1014.7
20200404115004 67 231 8.0 13.0 0.00 0.00 0.00 38 1014.7
20200404114904 67 234 8.0 13.0 0.00 0.00 0.00 38 1014.8
20200404114804 67 236 8.0 13.0 0.00 0.00 0.00 39 1014.8
20200404114703 67 238 8.0 13.0 0.00 0.00 0.00 39 1014.8
20200404114604 67 240 7.0 13.0 0.00 0.00 0.00 39 1014.8
20200404114504 67 243 7.0 13.0 0.00 0.00 0.00 38 1014.8
20200404114404 67 248 7.0 13.0 0.00 0.00 0.00 38 1014.8
20200404114304 67 255 6.0 13.0 0.00 0.00 0.00 38 1014.8
20200404114204 68 259 6.0 12.0 0.00 0.00 0.00 39 1014.9
20200404114103 67 257 6.0 12.0 0.00 0.00 0.00 40 1014.9
20200404114004 68 256 6.0 12.0 0.00 0.00 0.00 37 1014.9
20200404113918 68 256 6.0 12.0 0.00 0.00 0.00 38 1014.9
20200404113804 68 253 5.0 12.0 0.00 0.00 0.00 38 1014.9
20200404113703 68 252 5.0 9.0 0.00 0.00 0.00 37 1014.8
20200404113604 68 250 5.0 9.0 0.00 0.00 0.00 39 1014.9
20200404113503 68 246 5.0 10.0 0.00 0.00 0.00 36 1014.9
20200404113404 68 244 5.0 10.0 0.00 0.00 0.00 36 1014.9
20200404113303 68 241 5.0 10.0 0.00 0.00 0.00 37 1014.9
20200404113204 68 234 5.0 10.0 0.00 0.00 0.00 37 1014.9
20200404113103 68 232 5.0 10.0 0.00 0.00 0.00 37 1015.0
20200404113003 67 232 5.0 10.0 0.00 0.00 0.00 37 1015.0
20200404112903 67 233 5.0 10.0 0.00 0.00 0.00 37 1015.0
20200404112803 67 233 4.0 10.0 0.00 0.00 0.00 38 1014.9
20200404112704 67 237 4.0 10.0 0.00 0.00 0.00 37 1014.9
20200404112603 67 240 4.0 10.0 0.00 0.00 0.00 36 1015.0
20200404112503 67 248 4.0 8.0 0.00 0.00 0.00 36 1015.0
20200404112404 67 253 4.0 8.0 0.00 0.00 0.00 36 1015.0
20200404112305 67 257 4.0 8.0 0.00 0.00 0.00 36 1015.0
20200404112203 67 262 4.0 8.0 0.00 0.00 0.00 36 1015.0
20200404112103 67 267 5.0 9.0 0.00 0.00 0.00 36 1015.1
20200404112004 67 269 5.0 9.0 0.00 0.00 0.00 36 1015.1
20200404111903 67 273 5.0 9.0 0.00 0.00 0.00 36 1015.0
20200404111803 67 275 5.0 9.0 0.00 0.00 0.00 36 1015.1
20200404111703 67 277 5.0 9.0 0.00 0.00 0.00 36 1015.1
20200404111603 67 278 4.0 9.0 0.00 0.00 0.00 36 1015.1
20200404111504 67 283 4.0 9.0 0.00 0.00 0.00 37 1015.1
20200404111403 67 284 4.0 9.0 0.00 0.00 0.00 36 1015.1
20200404111303 67 284 4.0 9.0 0.00 0.00 0.00 36 1015.1
20200404111204 67 290 3.0 9.0 0.00 0.00 0.00 37 1015.1
20200404111104 67 295 3.0 7.0 0.00 0.00 0.00 37 1015.2
20200404111004 67 297 3.0 7.0 0.00 0.00 0.00 37 1015.2
20200404110904 67 292 3.0 7.0 0.00 0.00 0.00 36 1015.2
20200404110804 67 283 3.0 7.0 0.00 0.00 0.00 37 1015.1
20200404110704 67 281 3.0 7.0 0.00 0.00 0.00 37 1015.1
20200404110604 67 281 3.0 7.0 0.00 0.00 0.00 37 1015.1
20200404110504 67 274 3.0 7.0 0.00 0.00 0.00 37 1015.1
20200404110404 67 268 3.0 7.0 0.00 0.00 0.00 36 1015.1
20200404110304 67 262 3.0 7.0 0.00 0.00 0.00 36 1015.2
20200404110204 67 255 2.0 7.0 0.00 0.00 0.00 36 1015.2
20200404110104 67 245 2.0 7.0 0.00 0.00 0.00 36 1015.2
20200404110004 68 231 2.0 7.0 0.00 0.00 0.00 36 1015.2
20200404105904 68 218 2.0 5.0 0.00 0.00 0.00 36 1015.2
20200404105804 67 207 2.0 4.0 0.00 0.00 0.00 36 1015.3
20200404105704 67 208 2.0 4.0 0.00 0.00 0.00 36 1015.3
20200404105604 67 212 2.0 4.0 0.00 0.00 0.00 36 1015.3
20200404105504 67 204 2.0 4.0 0.00 0.00 0.00 36 1015.3
20200404105404 67 199 2.0 6.0 0.00 0.00 0.00 37 1015.3
20200404105306 67 208 2.0 7.0 0.00 0.00 0.00 37 1015.3
20200404105204 67 217 3.0 7.0 0.00 0.00 0.00 37 1015.3
20200404105104 67 221 3.0 7.0 0.00 0.00 0.00 36 1015.3
20200404105004 67 224 3.0 8.0 0.00 0.00 0.00 37 1015.4
20200404104904 66 229 3.0 8.0 0.00 0.00 0.00 37 1015.4
20200404104804 66 234 3.0 8.0 0.00 0.00 0.00 38 1015.2
20200404104704 66 235 4.0 8.0 0.00 0.00 0.00 38 1015.3
20200404104604 66 234 4.0 8.0 0.00 0.00 0.00 38 1015.3
20200404104504 66 235 4.0 8.0 0.00 0.00 0.00 38 1015.3
20200404104404 66 238 4.0 8.0 0.00 0.00 0.00 38 1015.4
20200404104304 66 234 4.0 8.0 0.00 0.00 0.00 37 1015.4
20200404104204 66 234 4.0 8.0 0.00 0.00 0.00 38 1015.4
20200404104104 66 236 4.0 8.0 0.00 0.00 0.00 38 1015.4
20200404104004 66 231 4.0 8.0 0.00 0.00 0.00 37 1015.4
20200404103904 66 225 4.0 8.0 0.00 0.00 0.00 37 1015.5
20200404103804 66 220 4.0 8.0 0.00 0.00 0.00 37 1015.5
20200404103704 66 215 4.0 8.0 0.00 0.00 0.00 37 1015.4
20200404103604 66 214 4.0 8.0 0.00 0.00 0.00 38 1015.4
20200404103504 66 213 4.0 8.0 0.00 0.00 0.00 38 1015.5
20200404103404 66 212 3.0 8.0 0.00 0.00 0.00 38 1015.4
20200404103304 66 210 3.0 8.0 0.00 0.00 0.00 39 1015.4
20200404103204 66 208 3.0 8.0 0.00 0.00 0.00 39 1015.4
20200404103104 66 207 3.0 7.0 0.00 0.00 0.00 39 1015.4
20200404103004 66 213 3.0 7.0 0.00 0.00 0.00 38 1015.4
20200404102904 66 221 3.0 7.0 0.00 0.00 0.00 38 1015.5
20200404102804 66 229 3.0 7.0 0.00 0.00 0.00 38 1015.5
20200404102704 66 232 3.0 7.0 0.00 0.00 0.00 38 1015.5
20200404102604 66 236 3.0 7.0 0.00 0.00 0.00 39 1015.5
20200404102504 66 244 3.0 7.0 0.00 0.00 0.00 39 1015.5
20200404102404 66 251 4.0 7.0 0.00 0.00 0.00 40 1015.4
20200404102306 65 256 4.0 7.0 0.00 0.00 0.00 40 1015.4
20200404102204 65 256 4.0 7.0 0.00 0.00 0.00 40 1015.4
20200404102104 65 255 3.0 7.0 0.00 0.00 0.00 41 1015.5
20200404102004 65 256 3.0 7.0 0.00 0.00 0.00 40 1015.5
20200404101904 65 258 3.0 7.0 0.00 0.00 0.00 40 1015.5
20200404101804 65 254 3.0 7.0 0.00 0.00 0.00 41 1015.5
20200404101704 65 257 3.0 7.0 0.00 0.00 0.00 40 1015.6
20200404101604 65 258 3.0 7.0 0.00 0.00 0.00 40 1015.5
20200404101504 65 256 3.0 7.0 0.00 0.00 0.00 40 1015.5
20200404101404 65 251 3.0 7.0 0.00 0.00 0.00 42 1015.5
20200404101304 65 247 3.0 7.0 0.00 0.00 0.00 41 1015.5
20200404101204 65 245 3.0 7.0 0.00 0.00 0.00 42 1015.5
20200404101104 65 246 3.0 7.0 0.00 0.00 0.00 42 1015.5
20200404101004 65 244 4.0 7.0 0.00 0.00 0.00 41 1015.5
20200404100904 65 243 4.0 7.0 0.00 0.00 0.00 41 1015.5
20200404100804 65 245 4.0 7.0 0.00 0.00 0.00 42 1015.6
20200404100704 64 241 4.0 7.0 0.00 0.00 0.00 42 1015.6
20200404100603 65 238 4.0 7.0 0.00 0.00 0.00 42 1015.6
20200404100504 65 237 4.0 7.0 0.00 0.00 0.00 43 1015.6
20200404100403 64 238 4.0 7.0 0.00 0.00 0.00 43 1015.6
20200404100303 64 242 4.0 7.0 0.00 0.00 0.00 43 1015.6
20200404100203 64 247 3.0 6.0 0.00 0.00 0.00 44 1015.6
20200404100103 64 250 3.0 6.0 0.00 0.00 0.00 43 1015.7
20200404100003 64 257 3.0 6.0 0.00 0.00 0.00 43 1015.7
20200404095903 64 260 3.0 6.0 0.00 0.00 0.00 43 1015.6
20200404095804 64 262 3.0 6.0 0.00 0.00 0.00 43 1015.6
20200404095703 64 265 3.0 6.0 0.00 0.00 0.00 44 1015.6
20200404095603 64 268 3.0 6.0 0.00 0.00 0.00 44 1015.6
20200404095503 64 268 3.0 6.0 0.00 0.00 0.00 45 1015.6
20200404095404 64 268 3.0 6.0 0.00 0.00 0.00 46 1015.6
20200404095306 64 263 3.0 6.0 0.00 0.00 0.00 46 1015.5
20200404095203 64 260 3.0 6.0 0.00 0.00 0.00 46 1015.5
20200404095103 64 256 3.0 6.0 0.00 0.00 0.00 45 1015.6
20200404095003 64 248 3.0 6.0 0.00 0.00 0.00 46 1015.6